<?xml version="1.0" encoding="UTF-8" standalone="no" ?>
<gpx xmlns="http://www.topografix.com/GPX/1/1" xmlns:xsi="http://www.w3.org/2001/XMLSchema-instance" xsi:schemaLocation="http://www.topografix.com/GPX/1/1 http://www.topografix.com/GPX/1/1/gpx.xsd" version="1.1" creator="VisuGPX - https://www.visugpx.com">
  <metadata>
    <name>Rando - Tour de Chalamet</name>
    <desc><![CDATA[Bien jolie rando à partir d'Ourches.]]></desc>
  </metadata>
  <trk>
    <name><![CDATA[26-MAI-22 11:51:08]]></name>
    <trkseg>
      <trkpt lat="44.80447" lon="5.04577">
        <ele>227.49</ele>
        <time>2022-05-26T06:22:20Z</time>
      </trkpt>
      <trkpt lat="44.80443" lon="5.04577">
        <ele>230.37</ele>
        <time>2022-05-26T06:22:23Z</time>
      </trkpt>
      <trkpt lat="44.80443" lon="5.04578">
        <ele>234.22</ele>
        <time>2022-05-26T06:22:24Z</time>
      </trkpt>
      <trkpt lat="44.80443" lon="5.0458">
        <ele>238.06</ele>
        <time>2022-05-26T06:22:25Z</time>
      </trkpt>
      <trkpt lat="44.80442" lon="5.04581">
        <ele>241.43</ele>
        <time>2022-05-26T06:22:26Z</time>
      </trkpt>
      <trkpt lat="44.80442" lon="5.04582">
        <ele>244.79</ele>
        <time>2022-05-26T06:22:27Z</time>
      </trkpt>
      <trkpt lat="44.80441" lon="5.04583">
        <ele>248.16</ele>
        <time>2022-05-26T06:22:28Z</time>
      </trkpt>
      <trkpt lat="44.8044" lon="5.04586">
        <ele>253.44</ele>
        <time>2022-05-26T06:22:30Z</time>
      </trkpt>
      <trkpt lat="44.80439" lon="5.04588">
        <ele>256.81</ele>
        <time>2022-05-26T06:22:31Z</time>
      </trkpt>
      <trkpt lat="44.80438" lon="5.04589">
        <ele>262.1</ele>
        <time>2022-05-26T06:22:33Z</time>
      </trkpt>
      <trkpt lat="44.80437" lon="5.0459">
        <ele>267.38</ele>
        <time>2022-05-26T06:22:35Z</time>
      </trkpt>
      <trkpt lat="44.80435" lon="5.04592">
        <ele>272.19</ele>
        <time>2022-05-26T06:22:37Z</time>
      </trkpt>
      <trkpt lat="44.80435" lon="5.04596">
        <ele>278.44</ele>
        <time>2022-05-26T06:22:40Z</time>
      </trkpt>
      <trkpt lat="44.80434" lon="5.04602">
        <ele>284.21</ele>
        <time>2022-05-26T06:22:43Z</time>
      </trkpt>
      <trkpt lat="44.80433" lon="5.04606">
        <ele>287.57</ele>
        <time>2022-05-26T06:22:45Z</time>
      </trkpt>
      <trkpt lat="44.80433" lon="5.04611">
        <ele>292.38</ele>
        <time>2022-05-26T06:22:48Z</time>
      </trkpt>
      <trkpt lat="44.80433" lon="5.04617">
        <ele>296.7</ele>
        <time>2022-05-26T06:22:51Z</time>
      </trkpt>
      <trkpt lat="44.80433" lon="5.04621">
        <ele>299.59</ele>
        <time>2022-05-26T06:22:53Z</time>
      </trkpt>
      <trkpt lat="44.80433" lon="5.04625">
        <ele>303.91</ele>
        <time>2022-05-26T06:22:56Z</time>
      </trkpt>
      <trkpt lat="44.80435" lon="5.04633">
        <ele>307.76</ele>
        <time>2022-05-26T06:23:00Z</time>
      </trkpt>
      <trkpt lat="44.80437" lon="5.04637">
        <ele>311.12</ele>
        <time>2022-05-26T06:23:03Z</time>
      </trkpt>
      <trkpt lat="44.80439" lon="5.04644">
        <ele>314.97</ele>
        <time>2022-05-26T06:23:07Z</time>
      </trkpt>
      <trkpt lat="44.80441" lon="5.0465">
        <ele>317.37</ele>
        <time>2022-05-26T06:23:11Z</time>
      </trkpt>
      <trkpt lat="44.80443" lon="5.04657">
        <ele>320.74</ele>
        <time>2022-05-26T06:23:15Z</time>
      </trkpt>
      <trkpt lat="44.80444" lon="5.04662">
        <ele>322.66</ele>
        <time>2022-05-26T06:23:18Z</time>
      </trkpt>
      <trkpt lat="44.80446" lon="5.0467">
        <ele>325.06</ele>
        <time>2022-05-26T06:23:22Z</time>
      </trkpt>
      <trkpt lat="44.80451" lon="5.04679">
        <ele>326.99</ele>
        <time>2022-05-26T06:23:26Z</time>
      </trkpt>
      <trkpt lat="44.80457" lon="5.04691">
        <ele>330.35</ele>
        <time>2022-05-26T06:23:32Z</time>
      </trkpt>
      <trkpt lat="44.80457" lon="5.04693">
        <ele>330.35</ele>
        <time>2022-05-26T06:23:33Z</time>
      </trkpt>
      <trkpt lat="44.80459" lon="5.04706">
        <ele>333.71</ele>
        <time>2022-05-26T06:23:41Z</time>
      </trkpt>
      <trkpt lat="44.80456" lon="5.0472">
        <ele>336.12</ele>
        <time>2022-05-26T06:23:49Z</time>
      </trkpt>
      <trkpt lat="44.80458" lon="5.04732">
        <ele>338.52</ele>
        <time>2022-05-26T06:23:55Z</time>
      </trkpt>
      <trkpt lat="44.8046" lon="5.04744">
        <ele>340.92</ele>
        <time>2022-05-26T06:24:03Z</time>
      </trkpt>
      <trkpt lat="44.8046" lon="5.04746">
        <ele>340.92</ele>
        <time>2022-05-26T06:24:04Z</time>
      </trkpt>
      <trkpt lat="44.80462" lon="5.04753">
        <ele>341.89</ele>
        <time>2022-05-26T06:24:07Z</time>
      </trkpt>
      <trkpt lat="44.80464" lon="5.0476">
        <ele>343.81</ele>
        <time>2022-05-26T06:24:11Z</time>
      </trkpt>
      <trkpt lat="44.80469" lon="5.04777">
        <ele>344.77</ele>
        <time>2022-05-26T06:24:23Z</time>
      </trkpt>
      <trkpt lat="44.80472" lon="5.04784">
        <ele>345.25</ele>
        <time>2022-05-26T06:24:27Z</time>
      </trkpt>
      <trkpt lat="44.80481" lon="5.04805">
        <ele>346.69</ele>
        <time>2022-05-26T06:24:39Z</time>
      </trkpt>
      <trkpt lat="44.80483" lon="5.04808">
        <ele>348.13</ele>
        <time>2022-05-26T06:24:41Z</time>
      </trkpt>
      <trkpt lat="44.80493" lon="5.04826">
        <ele>347.17</ele>
        <time>2022-05-26T06:24:53Z</time>
      </trkpt>
      <trkpt lat="44.80494" lon="5.04831">
        <ele>348.13</ele>
        <time>2022-05-26T06:24:56Z</time>
      </trkpt>
      <trkpt lat="44.80496" lon="5.04833">
        <ele>348.13</ele>
        <time>2022-05-26T06:24:58Z</time>
      </trkpt>
      <trkpt lat="44.8051" lon="5.04862">
        <ele>350.06</ele>
        <time>2022-05-26T06:25:16Z</time>
      </trkpt>
      <trkpt lat="44.80517" lon="5.04891">
        <ele>352.46</ele>
        <time>2022-05-26T06:25:33Z</time>
      </trkpt>
      <trkpt lat="44.80518" lon="5.049">
        <ele>353.42</ele>
        <time>2022-05-26T06:25:42Z</time>
      </trkpt>
      <trkpt lat="44.8052" lon="5.04906">
        <ele>354.38</ele>
        <time>2022-05-26T06:25:46Z</time>
      </trkpt>
      <trkpt lat="44.80526" lon="5.0493">
        <ele>354.86</ele>
        <time>2022-05-26T06:26:00Z</time>
      </trkpt>
      <trkpt lat="44.80531" lon="5.04944">
        <ele>356.31</ele>
        <time>2022-05-26T06:26:08Z</time>
      </trkpt>
      <trkpt lat="44.80537" lon="5.04966">
        <ele>358.71</ele>
        <time>2022-05-26T06:26:21Z</time>
      </trkpt>
      <trkpt lat="44.80542" lon="5.0499">
        <ele>360.15</ele>
        <time>2022-05-26T06:26:36Z</time>
      </trkpt>
      <trkpt lat="44.80546" lon="5.05">
        <ele>362.07</ele>
        <time>2022-05-26T06:26:43Z</time>
      </trkpt>
      <trkpt lat="44.80548" lon="5.05006">
        <ele>362.07</ele>
        <time>2022-05-26T06:26:46Z</time>
      </trkpt>
      <trkpt lat="44.8055" lon="5.05015">
        <ele>363.04</ele>
        <time>2022-05-26T06:26:52Z</time>
      </trkpt>
      <trkpt lat="44.80552" lon="5.05025">
        <ele>364.48</ele>
        <time>2022-05-26T06:26:57Z</time>
      </trkpt>
      <trkpt lat="44.80555" lon="5.05043">
        <ele>367.36</ele>
        <time>2022-05-26T06:27:09Z</time>
      </trkpt>
      <trkpt lat="44.80557" lon="5.05054">
        <ele>367.84</ele>
        <time>2022-05-26T06:27:16Z</time>
      </trkpt>
      <trkpt lat="44.80558" lon="5.05057">
        <ele>367.84</ele>
        <time>2022-05-26T06:27:18Z</time>
      </trkpt>
      <trkpt lat="44.80561" lon="5.05066">
        <ele>369.76</ele>
        <time>2022-05-26T06:27:23Z</time>
      </trkpt>
      <trkpt lat="44.80565" lon="5.05081">
        <ele>373.13</ele>
        <time>2022-05-26T06:27:32Z</time>
      </trkpt>
      <trkpt lat="44.80567" lon="5.05086">
        <ele>371.69</ele>
        <time>2022-05-26T06:27:35Z</time>
      </trkpt>
      <trkpt lat="44.80573" lon="5.05106">
        <ele>374.09</ele>
        <time>2022-05-26T06:27:48Z</time>
      </trkpt>
      <trkpt lat="44.80573" lon="5.05109">
        <ele>373.61</ele>
        <time>2022-05-26T06:27:50Z</time>
      </trkpt>
      <trkpt lat="44.80576" lon="5.05124">
        <ele>374.57</ele>
        <time>2022-05-26T06:27:59Z</time>
      </trkpt>
      <trkpt lat="44.80582" lon="5.05147">
        <ele>377.45</ele>
        <time>2022-05-26T06:28:13Z</time>
      </trkpt>
      <trkpt lat="44.80587" lon="5.05169">
        <ele>380.34</ele>
        <time>2022-05-26T06:28:27Z</time>
      </trkpt>
      <trkpt lat="44.80588" lon="5.05193">
        <ele>382.26</ele>
        <time>2022-05-26T06:28:41Z</time>
      </trkpt>
      <trkpt lat="44.80587" lon="5.0521">
        <ele>383.7</ele>
        <time>2022-05-26T06:28:53Z</time>
      </trkpt>
      <trkpt lat="44.80587" lon="5.05232">
        <ele>386.11</ele>
        <time>2022-05-26T06:29:07Z</time>
      </trkpt>
      <trkpt lat="44.80584" lon="5.05254">
        <ele>388.99</ele>
        <time>2022-05-26T06:29:19Z</time>
      </trkpt>
      <trkpt lat="44.80584" lon="5.0526">
        <ele>388.99</ele>
        <time>2022-05-26T06:29:23Z</time>
      </trkpt>
      <trkpt lat="44.80584" lon="5.05273">
        <ele>390.43</ele>
        <time>2022-05-26T06:29:30Z</time>
      </trkpt>
      <trkpt lat="44.80583" lon="5.05284">
        <ele>391.87</ele>
        <time>2022-05-26T06:29:37Z</time>
      </trkpt>
      <trkpt lat="44.80582" lon="5.05302">
        <ele>394.28</ele>
        <time>2022-05-26T06:29:48Z</time>
      </trkpt>
      <trkpt lat="44.80582" lon="5.05303">
        <ele>394.76</ele>
        <time>2022-05-26T06:29:49Z</time>
      </trkpt>
      <trkpt lat="44.80581" lon="5.05306">
        <ele>395.24</ele>
        <time>2022-05-26T06:29:51Z</time>
      </trkpt>
      <trkpt lat="44.80581" lon="5.05318">
        <ele>396.2</ele>
        <time>2022-05-26T06:29:59Z</time>
      </trkpt>
      <trkpt lat="44.80581" lon="5.05322">
        <ele>397.16</ele>
        <time>2022-05-26T06:30:01Z</time>
      </trkpt>
      <trkpt lat="44.80581" lon="5.05328">
        <ele>397.64</ele>
        <time>2022-05-26T06:30:05Z</time>
      </trkpt>
      <trkpt lat="44.80579" lon="5.05354">
        <ele>398.6</ele>
        <time>2022-05-26T06:30:20Z</time>
      </trkpt>
      <trkpt lat="44.80579" lon="5.05368">
        <ele>401.97</ele>
        <time>2022-05-26T06:30:28Z</time>
      </trkpt>
      <trkpt lat="44.80579" lon="5.05369">
        <ele>401.49</ele>
        <time>2022-05-26T06:30:29Z</time>
      </trkpt>
      <trkpt lat="44.80578" lon="5.05376">
        <ele>401.01</ele>
        <time>2022-05-26T06:30:33Z</time>
      </trkpt>
      <trkpt lat="44.80577" lon="5.05378">
        <ele>402.45</ele>
        <time>2022-05-26T06:30:35Z</time>
      </trkpt>
      <trkpt lat="44.80576" lon="5.05389">
        <ele>403.41</ele>
        <time>2022-05-26T06:30:41Z</time>
      </trkpt>
      <trkpt lat="44.80574" lon="5.05396">
        <ele>403.89</ele>
        <time>2022-05-26T06:30:45Z</time>
      </trkpt>
      <trkpt lat="44.80571" lon="5.05404">
        <ele>405.81</ele>
        <time>2022-05-26T06:30:51Z</time>
      </trkpt>
      <trkpt lat="44.80568" lon="5.05416">
        <ele>406.29</ele>
        <time>2022-05-26T06:30:59Z</time>
      </trkpt>
      <trkpt lat="44.80563" lon="5.05425">
        <ele>407.74</ele>
        <time>2022-05-26T06:31:05Z</time>
      </trkpt>
      <trkpt lat="44.8056" lon="5.05433">
        <ele>408.7</ele>
        <time>2022-05-26T06:31:10Z</time>
      </trkpt>
      <trkpt lat="44.80552" lon="5.05449">
        <ele>410.14</ele>
        <time>2022-05-26T06:31:21Z</time>
      </trkpt>
      <trkpt lat="44.80551" lon="5.0545">
        <ele>411.58</ele>
        <time>2022-05-26T06:31:22Z</time>
      </trkpt>
      <trkpt lat="44.80547" lon="5.05471">
        <ele>413.98</ele>
        <time>2022-05-26T06:31:35Z</time>
      </trkpt>
      <trkpt lat="44.8055" lon="5.05485">
        <ele>416.39</ele>
        <time>2022-05-26T06:31:44Z</time>
      </trkpt>
      <trkpt lat="44.80553" lon="5.05497">
        <ele>417.35</ele>
        <time>2022-05-26T06:31:52Z</time>
      </trkpt>
      <trkpt lat="44.80555" lon="5.05503">
        <ele>418.79</ele>
        <time>2022-05-26T06:31:55Z</time>
      </trkpt>
      <trkpt lat="44.80559" lon="5.05522">
        <ele>420.23</ele>
        <time>2022-05-26T06:32:06Z</time>
      </trkpt>
      <trkpt lat="44.80561" lon="5.05528">
        <ele>421.68</ele>
        <time>2022-05-26T06:32:11Z</time>
      </trkpt>
      <trkpt lat="44.80562" lon="5.05531">
        <ele>422.64</ele>
        <time>2022-05-26T06:32:13Z</time>
      </trkpt>
      <trkpt lat="44.80566" lon="5.05553">
        <ele>422.64</ele>
        <time>2022-05-26T06:32:27Z</time>
      </trkpt>
      <trkpt lat="44.80561" lon="5.05564">
        <ele>424.08</ele>
        <time>2022-05-26T06:32:41Z</time>
      </trkpt>
      <trkpt lat="44.80562" lon="5.0557">
        <ele>423.12</ele>
        <time>2022-05-26T06:32:56Z</time>
      </trkpt>
      <trkpt lat="44.80562" lon="5.05575">
        <ele>424.08</ele>
        <time>2022-05-26T06:32:59Z</time>
      </trkpt>
      <trkpt lat="44.80556" lon="5.05602">
        <ele>424.08</ele>
        <time>2022-05-26T06:33:14Z</time>
      </trkpt>
      <trkpt lat="44.80554" lon="5.05607">
        <ele>425.04</ele>
        <time>2022-05-26T06:33:17Z</time>
      </trkpt>
      <trkpt lat="44.80551" lon="5.05617">
        <ele>425.52</ele>
        <time>2022-05-26T06:33:24Z</time>
      </trkpt>
      <trkpt lat="44.8055" lon="5.0562">
        <ele>425.04</ele>
        <time>2022-05-26T06:33:26Z</time>
      </trkpt>
      <trkpt lat="44.80546" lon="5.05631">
        <ele>426</ele>
        <time>2022-05-26T06:33:33Z</time>
      </trkpt>
      <trkpt lat="44.80543" lon="5.0566">
        <ele>427.92</ele>
        <time>2022-05-26T06:33:49Z</time>
      </trkpt>
      <trkpt lat="44.80545" lon="5.05662">
        <ele>428.4</ele>
        <time>2022-05-26T06:33:51Z</time>
      </trkpt>
      <trkpt lat="44.80546" lon="5.0567">
        <ele>429.37</ele>
        <time>2022-05-26T06:33:56Z</time>
      </trkpt>
      <trkpt lat="44.80548" lon="5.05688">
        <ele>432.25</ele>
        <time>2022-05-26T06:34:10Z</time>
      </trkpt>
      <trkpt lat="44.80552" lon="5.05711">
        <ele>435.13</ele>
        <time>2022-05-26T06:34:25Z</time>
      </trkpt>
      <trkpt lat="44.80553" lon="5.05717">
        <ele>436.1</ele>
        <time>2022-05-26T06:34:29Z</time>
      </trkpt>
      <trkpt lat="44.80556" lon="5.05729">
        <ele>436.58</ele>
        <time>2022-05-26T06:34:38Z</time>
      </trkpt>
      <trkpt lat="44.8056" lon="5.05751">
        <ele>438.5</ele>
        <time>2022-05-26T06:34:52Z</time>
      </trkpt>
      <trkpt lat="44.80565" lon="5.05763">
        <ele>440.9</ele>
        <time>2022-05-26T06:35:01Z</time>
      </trkpt>
      <trkpt lat="44.80568" lon="5.0577">
        <ele>441.38</ele>
        <time>2022-05-26T06:35:06Z</time>
      </trkpt>
      <trkpt lat="44.80568" lon="5.05777">
        <ele>441.38</ele>
        <time>2022-05-26T06:35:11Z</time>
      </trkpt>
      <trkpt lat="44.80578" lon="5.05796">
        <ele>444.27</ele>
        <time>2022-05-26T06:35:25Z</time>
      </trkpt>
      <trkpt lat="44.80587" lon="5.05816">
        <ele>447.15</ele>
        <time>2022-05-26T06:35:41Z</time>
      </trkpt>
      <trkpt lat="44.80596" lon="5.05829">
        <ele>448.59</ele>
        <time>2022-05-26T06:35:53Z</time>
      </trkpt>
      <trkpt lat="44.80602" lon="5.05846">
        <ele>451</ele>
        <time>2022-05-26T06:36:07Z</time>
      </trkpt>
      <trkpt lat="44.80606" lon="5.05861">
        <ele>452.92</ele>
        <time>2022-05-26T06:36:20Z</time>
      </trkpt>
      <trkpt lat="44.8061" lon="5.05865">
        <ele>453.4</ele>
        <time>2022-05-26T06:36:24Z</time>
      </trkpt>
      <trkpt lat="44.80618" lon="5.05877">
        <ele>454.84</ele>
        <time>2022-05-26T06:36:33Z</time>
      </trkpt>
      <trkpt lat="44.80626" lon="5.05893">
        <ele>456.28</ele>
        <time>2022-05-26T06:36:46Z</time>
      </trkpt>
      <trkpt lat="44.80626" lon="5.05899">
        <ele>456.28</ele>
        <time>2022-05-26T06:36:51Z</time>
      </trkpt>
      <trkpt lat="44.80625" lon="5.05912">
        <ele>458.69</ele>
        <time>2022-05-26T06:37:00Z</time>
      </trkpt>
      <trkpt lat="44.80625" lon="5.05932">
        <ele>459.65</ele>
        <time>2022-05-26T06:37:14Z</time>
      </trkpt>
      <trkpt lat="44.80623" lon="5.05936">
        <ele>459.65</ele>
        <time>2022-05-26T06:37:18Z</time>
      </trkpt>
      <trkpt lat="44.8062" lon="5.0595">
        <ele>462.05</ele>
        <time>2022-05-26T06:37:27Z</time>
      </trkpt>
      <trkpt lat="44.80616" lon="5.05956">
        <ele>462.05</ele>
        <time>2022-05-26T06:37:32Z</time>
      </trkpt>
      <trkpt lat="44.80615" lon="5.0596">
        <ele>463.01</ele>
        <time>2022-05-26T06:37:35Z</time>
      </trkpt>
      <trkpt lat="44.80613" lon="5.05969">
        <ele>463.49</ele>
        <time>2022-05-26T06:37:40Z</time>
      </trkpt>
      <trkpt lat="44.80611" lon="5.05974">
        <ele>463.49</ele>
        <time>2022-05-26T06:37:44Z</time>
      </trkpt>
      <trkpt lat="44.80609" lon="5.05979">
        <ele>464.45</ele>
        <time>2022-05-26T06:37:48Z</time>
      </trkpt>
      <trkpt lat="44.8061" lon="5.05997">
        <ele>465.9</ele>
        <time>2022-05-26T06:38:01Z</time>
      </trkpt>
      <trkpt lat="44.80605" lon="5.06016">
        <ele>467.82</ele>
        <time>2022-05-26T06:38:15Z</time>
      </trkpt>
      <trkpt lat="44.80605" lon="5.06019">
        <ele>468.3</ele>
        <time>2022-05-26T06:38:17Z</time>
      </trkpt>
      <trkpt lat="44.80604" lon="5.06025">
        <ele>469.26</ele>
        <time>2022-05-26T06:38:21Z</time>
      </trkpt>
      <trkpt lat="44.80602" lon="5.06042">
        <ele>470.7</ele>
        <time>2022-05-26T06:38:33Z</time>
      </trkpt>
      <trkpt lat="44.80599" lon="5.06062">
        <ele>472.63</ele>
        <time>2022-05-26T06:38:48Z</time>
      </trkpt>
      <trkpt lat="44.80599" lon="5.06078">
        <ele>474.55</ele>
        <time>2022-05-26T06:38:59Z</time>
      </trkpt>
      <trkpt lat="44.80605" lon="5.06094">
        <ele>475.99</ele>
        <time>2022-05-26T06:39:11Z</time>
      </trkpt>
      <trkpt lat="44.80607" lon="5.06112">
        <ele>478.87</ele>
        <time>2022-05-26T06:39:26Z</time>
      </trkpt>
      <trkpt lat="44.80608" lon="5.06131">
        <ele>481.76</ele>
        <time>2022-05-26T06:39:42Z</time>
      </trkpt>
      <trkpt lat="44.80608" lon="5.06135">
        <ele>482.72</ele>
        <time>2022-05-26T06:39:45Z</time>
      </trkpt>
      <trkpt lat="44.80611" lon="5.0615">
        <ele>484.64</ele>
        <time>2022-05-26T06:39:59Z</time>
      </trkpt>
      <trkpt lat="44.80613" lon="5.06166">
        <ele>488.01</ele>
        <time>2022-05-26T06:40:14Z</time>
      </trkpt>
      <trkpt lat="44.80617" lon="5.06181">
        <ele>488.97</ele>
        <time>2022-05-26T06:40:24Z</time>
      </trkpt>
      <trkpt lat="44.80615" lon="5.06201">
        <ele>490.41</ele>
        <time>2022-05-26T06:40:38Z</time>
      </trkpt>
      <trkpt lat="44.80613" lon="5.06205">
        <ele>490.41</ele>
        <time>2022-05-26T06:40:41Z</time>
      </trkpt>
      <trkpt lat="44.80606" lon="5.06212">
        <ele>491.37</ele>
        <time>2022-05-26T06:40:49Z</time>
      </trkpt>
      <trkpt lat="44.80597" lon="5.06229">
        <ele>493.29</ele>
        <time>2022-05-26T06:41:04Z</time>
      </trkpt>
      <trkpt lat="44.80593" lon="5.06241">
        <ele>496.66</ele>
        <time>2022-05-26T06:41:15Z</time>
      </trkpt>
      <trkpt lat="44.8059" lon="5.06253">
        <ele>497.62</ele>
        <time>2022-05-26T06:41:24Z</time>
      </trkpt>
      <trkpt lat="44.80592" lon="5.06265">
        <ele>499.06</ele>
        <time>2022-05-26T06:41:33Z</time>
      </trkpt>
      <trkpt lat="44.8059" lon="5.06271">
        <ele>500.02</ele>
        <time>2022-05-26T06:41:37Z</time>
      </trkpt>
      <trkpt lat="44.80584" lon="5.06282">
        <ele>500.98</ele>
        <time>2022-05-26T06:41:46Z</time>
      </trkpt>
      <trkpt lat="44.80582" lon="5.06287">
        <ele>500.98</ele>
        <time>2022-05-26T06:41:50Z</time>
      </trkpt>
      <trkpt lat="44.80582" lon="5.06294">
        <ele>500.98</ele>
        <time>2022-05-26T06:41:54Z</time>
      </trkpt>
      <trkpt lat="44.80579" lon="5.06312">
        <ele>503.87</ele>
        <time>2022-05-26T06:42:09Z</time>
      </trkpt>
      <trkpt lat="44.80585" lon="5.06323">
        <ele>506.27</ele>
        <time>2022-05-26T06:42:18Z</time>
      </trkpt>
      <trkpt lat="44.80594" lon="5.06342">
        <ele>508.67</ele>
        <time>2022-05-26T06:42:34Z</time>
      </trkpt>
      <trkpt lat="44.80595" lon="5.06343">
        <ele>509.16</ele>
        <time>2022-05-26T06:42:36Z</time>
      </trkpt>
      <trkpt lat="44.80602" lon="5.06356">
        <ele>512.52</ele>
        <time>2022-05-26T06:42:51Z</time>
      </trkpt>
      <trkpt lat="44.80608" lon="5.06373">
        <ele>514.44</ele>
        <time>2022-05-26T06:43:05Z</time>
      </trkpt>
      <trkpt lat="44.80611" lon="5.0639">
        <ele>516.85</ele>
        <time>2022-05-26T06:43:19Z</time>
      </trkpt>
      <trkpt lat="44.80612" lon="5.06391">
        <ele>517.33</ele>
        <time>2022-05-26T06:43:20Z</time>
      </trkpt>
      <trkpt lat="44.80616" lon="5.06411">
        <ele>520.21</ele>
        <time>2022-05-26T06:43:35Z</time>
      </trkpt>
      <trkpt lat="44.80618" lon="5.06424">
        <ele>522.13</ele>
        <time>2022-05-26T06:43:47Z</time>
      </trkpt>
      <trkpt lat="44.80618" lon="5.0644">
        <ele>525.5</ele>
        <time>2022-05-26T06:44:02Z</time>
      </trkpt>
      <trkpt lat="44.80618" lon="5.06453">
        <ele>526.94</ele>
        <time>2022-05-26T06:44:13Z</time>
      </trkpt>
      <trkpt lat="44.80619" lon="5.06455">
        <ele>526.94</ele>
        <time>2022-05-26T06:44:15Z</time>
      </trkpt>
      <trkpt lat="44.80617" lon="5.06469">
        <ele>529.34</ele>
        <time>2022-05-26T06:44:27Z</time>
      </trkpt>
      <trkpt lat="44.80617" lon="5.06485">
        <ele>531.75</ele>
        <time>2022-05-26T06:44:40Z</time>
      </trkpt>
      <trkpt lat="44.80617" lon="5.06493">
        <ele>533.19</ele>
        <time>2022-05-26T06:44:47Z</time>
      </trkpt>
      <trkpt lat="44.80622" lon="5.06514">
        <ele>536.07</ele>
        <time>2022-05-26T06:45:02Z</time>
      </trkpt>
      <trkpt lat="44.80624" lon="5.06518">
        <ele>536.07</ele>
        <time>2022-05-26T06:45:05Z</time>
      </trkpt>
      <trkpt lat="44.80631" lon="5.06536">
        <ele>538.48</ele>
        <time>2022-05-26T06:45:21Z</time>
      </trkpt>
      <trkpt lat="44.8064" lon="5.0655">
        <ele>540.4</ele>
        <time>2022-05-26T06:45:35Z</time>
      </trkpt>
      <trkpt lat="44.80652" lon="5.06557">
        <ele>542.8</ele>
        <time>2022-05-26T06:45:49Z</time>
      </trkpt>
      <trkpt lat="44.80653" lon="5.06559">
        <ele>543.76</ele>
        <time>2022-05-26T06:45:52Z</time>
      </trkpt>
      <trkpt lat="44.80664" lon="5.06567">
        <ele>546.65</ele>
        <time>2022-05-26T06:46:06Z</time>
      </trkpt>
      <trkpt lat="44.80673" lon="5.06575">
        <ele>548.09</ele>
        <time>2022-05-26T06:46:21Z</time>
      </trkpt>
      <trkpt lat="44.80678" lon="5.06586">
        <ele>550.01</ele>
        <time>2022-05-26T06:46:34Z</time>
      </trkpt>
      <trkpt lat="44.80678" lon="5.06588">
        <ele>551.93</ele>
        <time>2022-05-26T06:46:39Z</time>
      </trkpt>
      <trkpt lat="44.80682" lon="5.06597">
        <ele>553.38</ele>
        <time>2022-05-26T06:46:47Z</time>
      </trkpt>
      <trkpt lat="44.80687" lon="5.06609">
        <ele>555.3</ele>
        <time>2022-05-26T06:46:59Z</time>
      </trkpt>
      <trkpt lat="44.80679" lon="5.06617">
        <ele>558.18</ele>
        <time>2022-05-26T06:47:12Z</time>
      </trkpt>
      <trkpt lat="44.80674" lon="5.06617">
        <ele>558.66</ele>
        <time>2022-05-26T06:47:28Z</time>
      </trkpt>
      <trkpt lat="44.8067" lon="5.06621">
        <ele>561.55</ele>
        <time>2022-05-26T06:47:40Z</time>
      </trkpt>
      <trkpt lat="44.80664" lon="5.0663">
        <ele>562.51</ele>
        <time>2022-05-26T06:47:52Z</time>
      </trkpt>
      <trkpt lat="44.80661" lon="5.06641">
        <ele>565.87</ele>
        <time>2022-05-26T06:48:06Z</time>
      </trkpt>
      <trkpt lat="44.8066" lon="5.06652">
        <ele>568.28</ele>
        <time>2022-05-26T06:48:17Z</time>
      </trkpt>
      <trkpt lat="44.80659" lon="5.06665">
        <ele>571.64</ele>
        <time>2022-05-26T06:48:30Z</time>
      </trkpt>
      <trkpt lat="44.80659" lon="5.06675">
        <ele>573.08</ele>
        <time>2022-05-26T06:48:43Z</time>
      </trkpt>
      <trkpt lat="44.80659" lon="5.06678">
        <ele>575.49</ele>
        <time>2022-05-26T06:48:47Z</time>
      </trkpt>
      <trkpt lat="44.80656" lon="5.06686">
        <ele>577.41</ele>
        <time>2022-05-26T06:48:58Z</time>
      </trkpt>
      <trkpt lat="44.80655" lon="5.06693">
        <ele>578.37</ele>
        <time>2022-05-26T06:49:09Z</time>
      </trkpt>
      <trkpt lat="44.80656" lon="5.06696">
        <ele>578.37</ele>
        <time>2022-05-26T06:49:22Z</time>
      </trkpt>
      <trkpt lat="44.80658" lon="5.06702">
        <ele>579.81</ele>
        <time>2022-05-26T06:49:42Z</time>
      </trkpt>
      <trkpt lat="44.8066" lon="5.06711">
        <ele>580.77</ele>
        <time>2022-05-26T06:49:48Z</time>
      </trkpt>
      <trkpt lat="44.80662" lon="5.06724">
        <ele>582.7</ele>
        <time>2022-05-26T06:50:00Z</time>
      </trkpt>
      <trkpt lat="44.80663" lon="5.06735">
        <ele>584.62</ele>
        <time>2022-05-26T06:50:12Z</time>
      </trkpt>
      <trkpt lat="44.80663" lon="5.06737">
        <ele>585.1</ele>
        <time>2022-05-26T06:50:15Z</time>
      </trkpt>
      <trkpt lat="44.80659" lon="5.06745">
        <ele>587.02</ele>
        <time>2022-05-26T06:50:27Z</time>
      </trkpt>
      <trkpt lat="44.80659" lon="5.06745">
        <ele>587.5</ele>
        <time>2022-05-26T06:50:42Z</time>
      </trkpt>
      <trkpt lat="44.80662" lon="5.06749">
        <ele>587.5</ele>
        <time>2022-05-26T06:50:56Z</time>
      </trkpt>
      <trkpt lat="44.80664" lon="5.06754">
        <ele>589.43</ele>
        <time>2022-05-26T06:51:06Z</time>
      </trkpt>
      <trkpt lat="44.80669" lon="5.06766">
        <ele>592.31</ele>
        <time>2022-05-26T06:51:19Z</time>
      </trkpt>
      <trkpt lat="44.80675" lon="5.06779">
        <ele>594.71</ele>
        <time>2022-05-26T06:51:32Z</time>
      </trkpt>
      <trkpt lat="44.80675" lon="5.0678">
        <ele>595.67</ele>
        <time>2022-05-26T06:51:35Z</time>
      </trkpt>
      <trkpt lat="44.80678" lon="5.06792">
        <ele>598.56</ele>
        <time>2022-05-26T06:51:47Z</time>
      </trkpt>
      <trkpt lat="44.80679" lon="5.06801">
        <ele>600.48</ele>
        <time>2022-05-26T06:51:55Z</time>
      </trkpt>
      <trkpt lat="44.80681" lon="5.06814">
        <ele>603.36</ele>
        <time>2022-05-26T06:52:07Z</time>
      </trkpt>
      <trkpt lat="44.8068" lon="5.06826">
        <ele>604.81</ele>
        <time>2022-05-26T06:52:18Z</time>
      </trkpt>
      <trkpt lat="44.80677" lon="5.06841">
        <ele>607.21</ele>
        <time>2022-05-26T06:52:29Z</time>
      </trkpt>
      <trkpt lat="44.80676" lon="5.06849">
        <ele>607.69</ele>
        <time>2022-05-26T06:52:36Z</time>
      </trkpt>
      <trkpt lat="44.80669" lon="5.06863">
        <ele>610.57</ele>
        <time>2022-05-26T06:52:48Z</time>
      </trkpt>
      <trkpt lat="44.80667" lon="5.06872">
        <ele>612.98</ele>
        <time>2022-05-26T06:52:55Z</time>
      </trkpt>
      <trkpt lat="44.80663" lon="5.06879">
        <ele>612.98</ele>
        <time>2022-05-26T06:53:10Z</time>
      </trkpt>
      <trkpt lat="44.80659" lon="5.06882">
        <ele>612.98</ele>
        <time>2022-05-26T06:53:14Z</time>
      </trkpt>
      <trkpt lat="44.80647" lon="5.06892">
        <ele>613.46</ele>
        <time>2022-05-26T06:53:26Z</time>
      </trkpt>
      <trkpt lat="44.80635" lon="5.069">
        <ele>613.46</ele>
        <time>2022-05-26T06:53:39Z</time>
      </trkpt>
      <trkpt lat="44.80631" lon="5.06901">
        <ele>613.94</ele>
        <time>2022-05-26T06:53:42Z</time>
      </trkpt>
      <trkpt lat="44.80628" lon="5.06902">
        <ele>613.46</ele>
        <time>2022-05-26T06:53:45Z</time>
      </trkpt>
      <trkpt lat="44.80623" lon="5.06904">
        <ele>615.38</ele>
        <time>2022-05-26T06:53:49Z</time>
      </trkpt>
      <trkpt lat="44.80608" lon="5.06911">
        <ele>614.9</ele>
        <time>2022-05-26T06:54:02Z</time>
      </trkpt>
      <trkpt lat="44.80591" lon="5.06916">
        <ele>616.34</ele>
        <time>2022-05-26T06:54:17Z</time>
      </trkpt>
      <trkpt lat="44.80588" lon="5.06917">
        <ele>617.3</ele>
        <time>2022-05-26T06:54:20Z</time>
      </trkpt>
      <trkpt lat="44.80585" lon="5.06919">
        <ele>617.78</ele>
        <time>2022-05-26T06:54:23Z</time>
      </trkpt>
      <trkpt lat="44.80583" lon="5.06919">
        <ele>617.78</ele>
        <time>2022-05-26T06:54:25Z</time>
      </trkpt>
      <trkpt lat="44.8058" lon="5.0692">
        <ele>618.26</ele>
        <time>2022-05-26T06:54:28Z</time>
      </trkpt>
      <trkpt lat="44.80573" lon="5.06923">
        <ele>619.71</ele>
        <time>2022-05-26T06:54:35Z</time>
      </trkpt>
      <trkpt lat="44.80563" lon="5.06927">
        <ele>620.19</ele>
        <time>2022-05-26T06:54:48Z</time>
      </trkpt>
      <trkpt lat="44.80554" lon="5.06929">
        <ele>621.15</ele>
        <time>2022-05-26T06:54:56Z</time>
      </trkpt>
      <trkpt lat="44.8055" lon="5.06931">
        <ele>622.59</ele>
        <time>2022-05-26T06:54:59Z</time>
      </trkpt>
      <trkpt lat="44.80544" lon="5.06938">
        <ele>624.03</ele>
        <time>2022-05-26T06:55:06Z</time>
      </trkpt>
      <trkpt lat="44.80534" lon="5.06949">
        <ele>625.47</ele>
        <time>2022-05-26T06:55:19Z</time>
      </trkpt>
      <trkpt lat="44.80526" lon="5.06958">
        <ele>628.36</ele>
        <time>2022-05-26T06:55:30Z</time>
      </trkpt>
      <trkpt lat="44.80522" lon="5.06963">
        <ele>629.32</ele>
        <time>2022-05-26T06:55:36Z</time>
      </trkpt>
      <trkpt lat="44.80519" lon="5.06966">
        <ele>630.28</ele>
        <time>2022-05-26T06:55:40Z</time>
      </trkpt>
      <trkpt lat="44.80515" lon="5.06974">
        <ele>632.68</ele>
        <time>2022-05-26T06:55:53Z</time>
      </trkpt>
      <trkpt lat="44.80508" lon="5.06982">
        <ele>635.57</ele>
        <time>2022-05-26T06:56:03Z</time>
      </trkpt>
      <trkpt lat="44.80505" lon="5.06988">
        <ele>636.53</ele>
        <time>2022-05-26T06:56:10Z</time>
      </trkpt>
      <trkpt lat="44.80502" lon="5.06991">
        <ele>636.53</ele>
        <time>2022-05-26T06:56:13Z</time>
      </trkpt>
      <trkpt lat="44.805" lon="5.06993">
        <ele>637.49</ele>
        <time>2022-05-26T06:56:16Z</time>
      </trkpt>
      <trkpt lat="44.80491" lon="5.06997">
        <ele>639.41</ele>
        <time>2022-05-26T06:56:28Z</time>
      </trkpt>
      <trkpt lat="44.8049" lon="5.06997">
        <ele>639.89</ele>
        <time>2022-05-26T06:56:45Z</time>
      </trkpt>
      <trkpt lat="44.80489" lon="5.07">
        <ele>640.38</ele>
        <time>2022-05-26T06:57:07Z</time>
      </trkpt>
      <trkpt lat="44.80478" lon="5.07007">
        <ele>642.78</ele>
        <time>2022-05-26T06:57:23Z</time>
      </trkpt>
      <trkpt lat="44.8047" lon="5.07009">
        <ele>645.18</ele>
        <time>2022-05-26T06:57:34Z</time>
      </trkpt>
      <trkpt lat="44.80461" lon="5.07015">
        <ele>647.1</ele>
        <time>2022-05-26T06:57:45Z</time>
      </trkpt>
      <trkpt lat="44.80454" lon="5.07018">
        <ele>649.51</ele>
        <time>2022-05-26T06:57:58Z</time>
      </trkpt>
      <trkpt lat="44.80444" lon="5.07023">
        <ele>650.47</ele>
        <time>2022-05-26T06:58:11Z</time>
      </trkpt>
      <trkpt lat="44.80436" lon="5.07026">
        <ele>653.83</ele>
        <time>2022-05-26T06:58:20Z</time>
      </trkpt>
      <trkpt lat="44.80424" lon="5.07029">
        <ele>655.76</ele>
        <time>2022-05-26T06:58:33Z</time>
      </trkpt>
      <trkpt lat="44.80418" lon="5.07032">
        <ele>657.2</ele>
        <time>2022-05-26T06:58:40Z</time>
      </trkpt>
      <trkpt lat="44.80414" lon="5.07035">
        <ele>657.68</ele>
        <time>2022-05-26T06:58:44Z</time>
      </trkpt>
      <trkpt lat="44.80407" lon="5.07042">
        <ele>660.08</ele>
        <time>2022-05-26T06:58:56Z</time>
      </trkpt>
      <trkpt lat="44.80401" lon="5.07052">
        <ele>662.49</ele>
        <time>2022-05-26T06:59:07Z</time>
      </trkpt>
      <trkpt lat="44.80394" lon="5.07062">
        <ele>665.85</ele>
        <time>2022-05-26T06:59:19Z</time>
      </trkpt>
      <trkpt lat="44.80388" lon="5.07069">
        <ele>667.77</ele>
        <time>2022-05-26T06:59:31Z</time>
      </trkpt>
      <trkpt lat="44.80379" lon="5.07078">
        <ele>670.18</ele>
        <time>2022-05-26T06:59:43Z</time>
      </trkpt>
      <trkpt lat="44.80373" lon="5.07077">
        <ele>671.62</ele>
        <time>2022-05-26T06:59:56Z</time>
      </trkpt>
      <trkpt lat="44.80371" lon="5.07075">
        <ele>672.58</ele>
        <time>2022-05-26T07:00:05Z</time>
      </trkpt>
      <trkpt lat="44.80369" lon="5.07076">
        <ele>673.06</ele>
        <time>2022-05-26T07:00:07Z</time>
      </trkpt>
      <trkpt lat="44.80359" lon="5.07078">
        <ele>674.98</ele>
        <time>2022-05-26T07:00:21Z</time>
      </trkpt>
      <trkpt lat="44.80351" lon="5.0708">
        <ele>677.39</ele>
        <time>2022-05-26T07:00:30Z</time>
      </trkpt>
      <trkpt lat="44.80342" lon="5.07085">
        <ele>679.79</ele>
        <time>2022-05-26T07:00:43Z</time>
      </trkpt>
      <trkpt lat="44.80329" lon="5.07086">
        <ele>681.71</ele>
        <time>2022-05-26T07:00:55Z</time>
      </trkpt>
      <trkpt lat="44.80319" lon="5.07091">
        <ele>682.67</ele>
        <time>2022-05-26T07:01:09Z</time>
      </trkpt>
      <trkpt lat="44.80318" lon="5.07093">
        <ele>683.15</ele>
        <time>2022-05-26T07:01:11Z</time>
      </trkpt>
      <trkpt lat="44.80314" lon="5.07097">
        <ele>684.12</ele>
        <time>2022-05-26T07:01:16Z</time>
      </trkpt>
      <trkpt lat="44.80304" lon="5.07105">
        <ele>686.04</ele>
        <time>2022-05-26T07:01:28Z</time>
      </trkpt>
      <trkpt lat="44.80298" lon="5.07112">
        <ele>687</ele>
        <time>2022-05-26T07:01:39Z</time>
      </trkpt>
      <trkpt lat="44.80291" lon="5.07114">
        <ele>688.44</ele>
        <time>2022-05-26T07:01:46Z</time>
      </trkpt>
      <trkpt lat="44.80281" lon="5.07113">
        <ele>691.33</ele>
        <time>2022-05-26T07:01:57Z</time>
      </trkpt>
      <trkpt lat="44.80278" lon="5.07116">
        <ele>692.29</ele>
        <time>2022-05-26T07:02:00Z</time>
      </trkpt>
      <trkpt lat="44.80274" lon="5.07117">
        <ele>692.77</ele>
        <time>2022-05-26T07:02:04Z</time>
      </trkpt>
      <trkpt lat="44.80266" lon="5.07122">
        <ele>694.69</ele>
        <time>2022-05-26T07:02:13Z</time>
      </trkpt>
      <trkpt lat="44.80258" lon="5.07128">
        <ele>695.65</ele>
        <time>2022-05-26T07:02:22Z</time>
      </trkpt>
      <trkpt lat="44.80254" lon="5.0713">
        <ele>696.13</ele>
        <time>2022-05-26T07:02:26Z</time>
      </trkpt>
      <trkpt lat="44.80244" lon="5.07133">
        <ele>699.02</ele>
        <time>2022-05-26T07:02:38Z</time>
      </trkpt>
      <trkpt lat="44.80233" lon="5.07137">
        <ele>700.94</ele>
        <time>2022-05-26T07:02:49Z</time>
      </trkpt>
      <trkpt lat="44.80221" lon="5.07142">
        <ele>702.86</ele>
        <time>2022-05-26T07:03:02Z</time>
      </trkpt>
      <trkpt lat="44.80209" lon="5.07151">
        <ele>705.75</ele>
        <time>2022-05-26T07:03:15Z</time>
      </trkpt>
      <trkpt lat="44.80197" lon="5.07158">
        <ele>707.67</ele>
        <time>2022-05-26T07:03:27Z</time>
      </trkpt>
      <trkpt lat="44.80191" lon="5.07158">
        <ele>707.67</ele>
        <time>2022-05-26T07:03:41Z</time>
      </trkpt>
      <trkpt lat="44.8019" lon="5.07157">
        <ele>707.67</ele>
        <time>2022-05-26T07:03:59Z</time>
      </trkpt>
      <trkpt lat="44.8019" lon="5.07157">
        <ele>708.15</ele>
        <time>2022-05-26T07:04:29Z</time>
      </trkpt>
      <trkpt lat="44.8019" lon="5.07157">
        <ele>708.63</ele>
        <time>2022-05-26T07:04:50Z</time>
      </trkpt>
      <trkpt lat="44.8019" lon="5.07157">
        <ele>712.47</ele>
        <time>2022-05-26T07:04:57Z</time>
      </trkpt>
      <trkpt lat="44.8019" lon="5.07157">
        <ele>706.71</ele>
        <time>2022-05-26T07:04:58Z</time>
      </trkpt>
      <trkpt lat="44.8019" lon="5.07157">
        <ele>709.59</ele>
        <time>2022-05-26T07:05:00Z</time>
      </trkpt>
      <trkpt lat="44.8019" lon="5.07157">
        <ele>713.92</ele>
        <time>2022-05-26T07:05:01Z</time>
      </trkpt>
      <trkpt lat="44.8019" lon="5.07157">
        <ele>709.11</ele>
        <time>2022-05-26T07:05:02Z</time>
      </trkpt>
      <trkpt lat="44.8019" lon="5.07158">
        <ele>710.07</ele>
        <time>2022-05-26T07:05:27Z</time>
      </trkpt>
      <trkpt lat="44.80189" lon="5.07159">
        <ele>709.11</ele>
        <time>2022-05-26T07:05:37Z</time>
      </trkpt>
      <trkpt lat="44.8018" lon="5.07164">
        <ele>710.55</ele>
        <time>2022-05-26T07:05:46Z</time>
      </trkpt>
      <trkpt lat="44.80175" lon="5.07166">
        <ele>711.99</ele>
        <time>2022-05-26T07:05:51Z</time>
      </trkpt>
      <trkpt lat="44.80162" lon="5.0717">
        <ele>713.44</ele>
        <time>2022-05-26T07:06:04Z</time>
      </trkpt>
      <trkpt lat="44.80157" lon="5.07173">
        <ele>714.4</ele>
        <time>2022-05-26T07:06:09Z</time>
      </trkpt>
      <trkpt lat="44.80149" lon="5.07176">
        <ele>715.84</ele>
        <time>2022-05-26T07:06:22Z</time>
      </trkpt>
      <trkpt lat="44.80146" lon="5.07177">
        <ele>716.8</ele>
        <time>2022-05-26T07:06:25Z</time>
      </trkpt>
      <trkpt lat="44.80143" lon="5.07178">
        <ele>717.76</ele>
        <time>2022-05-26T07:06:29Z</time>
      </trkpt>
      <trkpt lat="44.80135" lon="5.07184">
        <ele>720.16</ele>
        <time>2022-05-26T07:06:41Z</time>
      </trkpt>
      <trkpt lat="44.80125" lon="5.07185">
        <ele>722.09</ele>
        <time>2022-05-26T07:06:51Z</time>
      </trkpt>
      <trkpt lat="44.80118" lon="5.07189">
        <ele>724.49</ele>
        <time>2022-05-26T07:06:59Z</time>
      </trkpt>
      <trkpt lat="44.80106" lon="5.07194">
        <ele>727.37</ele>
        <time>2022-05-26T07:07:14Z</time>
      </trkpt>
      <trkpt lat="44.80103" lon="5.07197">
        <ele>728.34</ele>
        <time>2022-05-26T07:07:18Z</time>
      </trkpt>
      <trkpt lat="44.80095" lon="5.07199">
        <ele>730.26</ele>
        <time>2022-05-26T07:07:26Z</time>
      </trkpt>
      <trkpt lat="44.80091" lon="5.07202">
        <ele>730.74</ele>
        <time>2022-05-26T07:07:32Z</time>
      </trkpt>
      <trkpt lat="44.80086" lon="5.07207">
        <ele>732.18</ele>
        <time>2022-05-26T07:07:39Z</time>
      </trkpt>
      <trkpt lat="44.80083" lon="5.07211">
        <ele>732.66</ele>
        <time>2022-05-26T07:07:42Z</time>
      </trkpt>
      <trkpt lat="44.80079" lon="5.07213">
        <ele>733.14</ele>
        <time>2022-05-26T07:07:46Z</time>
      </trkpt>
      <trkpt lat="44.80075" lon="5.07216">
        <ele>733.14</ele>
        <time>2022-05-26T07:07:50Z</time>
      </trkpt>
      <trkpt lat="44.8007" lon="5.07221">
        <ele>735.55</ele>
        <time>2022-05-26T07:07:58Z</time>
      </trkpt>
      <trkpt lat="44.80062" lon="5.07226">
        <ele>735.55</ele>
        <time>2022-05-26T07:08:14Z</time>
      </trkpt>
      <trkpt lat="44.80052" lon="5.07232">
        <ele>737.95</ele>
        <time>2022-05-26T07:08:29Z</time>
      </trkpt>
      <trkpt lat="44.80047" lon="5.07239">
        <ele>739.39</ele>
        <time>2022-05-26T07:08:37Z</time>
      </trkpt>
      <trkpt lat="44.80042" lon="5.07243">
        <ele>739.87</ele>
        <time>2022-05-26T07:08:42Z</time>
      </trkpt>
      <trkpt lat="44.80031" lon="5.07247">
        <ele>742.76</ele>
        <time>2022-05-26T07:08:56Z</time>
      </trkpt>
      <trkpt lat="44.80024" lon="5.07251">
        <ele>745.64</ele>
        <time>2022-05-26T07:09:07Z</time>
      </trkpt>
      <trkpt lat="44.8001" lon="5.07257">
        <ele>749</ele>
        <time>2022-05-26T07:09:23Z</time>
      </trkpt>
      <trkpt lat="44.79999" lon="5.07259">
        <ele>751.89</ele>
        <time>2022-05-26T07:09:36Z</time>
      </trkpt>
      <trkpt lat="44.79989" lon="5.07265">
        <ele>755.25</ele>
        <time>2022-05-26T07:09:51Z</time>
      </trkpt>
      <trkpt lat="44.79981" lon="5.07263">
        <ele>759.1</ele>
        <time>2022-05-26T07:10:05Z</time>
      </trkpt>
      <trkpt lat="44.79971" lon="5.07271">
        <ele>761.5</ele>
        <time>2022-05-26T07:10:17Z</time>
      </trkpt>
      <trkpt lat="44.79966" lon="5.07274">
        <ele>762.46</ele>
        <time>2022-05-26T07:10:24Z</time>
      </trkpt>
      <trkpt lat="44.79956" lon="5.07279">
        <ele>766.31</ele>
        <time>2022-05-26T07:10:38Z</time>
      </trkpt>
      <trkpt lat="44.79945" lon="5.07279">
        <ele>769.67</ele>
        <time>2022-05-26T07:10:51Z</time>
      </trkpt>
      <trkpt lat="44.79936" lon="5.07281">
        <ele>772.08</ele>
        <time>2022-05-26T07:11:04Z</time>
      </trkpt>
      <trkpt lat="44.79929" lon="5.07283">
        <ele>773.52</ele>
        <time>2022-05-26T07:11:14Z</time>
      </trkpt>
      <trkpt lat="44.79919" lon="5.07284">
        <ele>775.92</ele>
        <time>2022-05-26T07:11:26Z</time>
      </trkpt>
      <trkpt lat="44.79912" lon="5.07286">
        <ele>779.77</ele>
        <time>2022-05-26T07:11:37Z</time>
      </trkpt>
      <trkpt lat="44.79904" lon="5.07288">
        <ele>781.69</ele>
        <time>2022-05-26T07:11:50Z</time>
      </trkpt>
      <trkpt lat="44.79896" lon="5.07289">
        <ele>783.61</ele>
        <time>2022-05-26T07:12:01Z</time>
      </trkpt>
      <trkpt lat="44.79887" lon="5.07291">
        <ele>786.5</ele>
        <time>2022-05-26T07:12:15Z</time>
      </trkpt>
      <trkpt lat="44.79881" lon="5.07292">
        <ele>789.86</ele>
        <time>2022-05-26T07:12:28Z</time>
      </trkpt>
      <trkpt lat="44.79873" lon="5.07295">
        <ele>793.71</ele>
        <time>2022-05-26T07:12:40Z</time>
      </trkpt>
      <trkpt lat="44.7986" lon="5.07297">
        <ele>796.11</ele>
        <time>2022-05-26T07:12:53Z</time>
      </trkpt>
      <trkpt lat="44.79854" lon="5.07296">
        <ele>797.55</ele>
        <time>2022-05-26T07:13:09Z</time>
      </trkpt>
      <trkpt lat="44.79851" lon="5.07296">
        <ele>798.99</ele>
        <time>2022-05-26T07:13:12Z</time>
      </trkpt>
      <trkpt lat="44.79845" lon="5.07294">
        <ele>800.92</ele>
        <time>2022-05-26T07:13:20Z</time>
      </trkpt>
      <trkpt lat="44.79837" lon="5.07293">
        <ele>800.92</ele>
        <time>2022-05-26T07:13:28Z</time>
      </trkpt>
      <trkpt lat="44.79833" lon="5.07294">
        <ele>801.88</ele>
        <time>2022-05-26T07:13:32Z</time>
      </trkpt>
      <trkpt lat="44.7983" lon="5.07294">
        <ele>802.84</ele>
        <time>2022-05-26T07:13:36Z</time>
      </trkpt>
      <trkpt lat="44.79819" lon="5.07293">
        <ele>806.2</ele>
        <time>2022-05-26T07:13:49Z</time>
      </trkpt>
      <trkpt lat="44.7981" lon="5.07288">
        <ele>807.64</ele>
        <time>2022-05-26T07:14:01Z</time>
      </trkpt>
      <trkpt lat="44.79802" lon="5.07283">
        <ele>810.53</ele>
        <time>2022-05-26T07:14:14Z</time>
      </trkpt>
      <trkpt lat="44.79794" lon="5.07279">
        <ele>811.97</ele>
        <time>2022-05-26T07:14:26Z</time>
      </trkpt>
      <trkpt lat="44.79789" lon="5.07275">
        <ele>814.85</ele>
        <time>2022-05-26T07:14:33Z</time>
      </trkpt>
      <trkpt lat="44.79787" lon="5.07273">
        <ele>815.34</ele>
        <time>2022-05-26T07:14:35Z</time>
      </trkpt>
      <trkpt lat="44.79784" lon="5.07268">
        <ele>816.78</ele>
        <time>2022-05-26T07:14:40Z</time>
      </trkpt>
      <trkpt lat="44.79779" lon="5.0726">
        <ele>817.74</ele>
        <time>2022-05-26T07:14:50Z</time>
      </trkpt>
      <trkpt lat="44.79772" lon="5.07253">
        <ele>819.66</ele>
        <time>2022-05-26T07:15:00Z</time>
      </trkpt>
      <trkpt lat="44.79763" lon="5.07248">
        <ele>821.1</ele>
        <time>2022-05-26T07:15:10Z</time>
      </trkpt>
      <trkpt lat="44.79761" lon="5.07246">
        <ele>821.58</ele>
        <time>2022-05-26T07:15:12Z</time>
      </trkpt>
      <trkpt lat="44.79752" lon="5.07242">
        <ele>823.51</ele>
        <time>2022-05-26T07:15:24Z</time>
      </trkpt>
      <trkpt lat="44.79748" lon="5.07237">
        <ele>825.43</ele>
        <time>2022-05-26T07:15:28Z</time>
      </trkpt>
      <trkpt lat="44.79739" lon="5.07231">
        <ele>828.79</ele>
        <time>2022-05-26T07:15:38Z</time>
      </trkpt>
      <trkpt lat="44.79733" lon="5.07228">
        <ele>830.72</ele>
        <time>2022-05-26T07:15:50Z</time>
      </trkpt>
      <trkpt lat="44.79733" lon="5.07227">
        <ele>832.16</ele>
        <time>2022-05-26T07:15:53Z</time>
      </trkpt>
      <trkpt lat="44.79725" lon="5.07221">
        <ele>835.04</ele>
        <time>2022-05-26T07:16:02Z</time>
      </trkpt>
      <trkpt lat="44.7972" lon="5.07216">
        <ele>838.41</ele>
        <time>2022-05-26T07:16:12Z</time>
      </trkpt>
      <trkpt lat="44.79712" lon="5.07214">
        <ele>841.29</ele>
        <time>2022-05-26T07:16:21Z</time>
      </trkpt>
      <trkpt lat="44.79706" lon="5.07211">
        <ele>841.77</ele>
        <time>2022-05-26T07:16:27Z</time>
      </trkpt>
      <trkpt lat="44.79699" lon="5.07214">
        <ele>842.73</ele>
        <time>2022-05-26T07:16:42Z</time>
      </trkpt>
      <trkpt lat="44.79696" lon="5.0721">
        <ele>842.25</ele>
        <time>2022-05-26T07:17:00Z</time>
      </trkpt>
      <trkpt lat="44.79695" lon="5.07203">
        <ele>843.69</ele>
        <time>2022-05-26T07:17:14Z</time>
      </trkpt>
      <trkpt lat="44.79698" lon="5.07207">
        <ele>843.21</ele>
        <time>2022-05-26T07:17:28Z</time>
      </trkpt>
      <trkpt lat="44.79697" lon="5.07206">
        <ele>842.25</ele>
        <time>2022-05-26T07:17:56Z</time>
      </trkpt>
      <trkpt lat="44.79691" lon="5.07201">
        <ele>841.77</ele>
        <time>2022-05-26T07:18:06Z</time>
      </trkpt>
      <trkpt lat="44.79685" lon="5.07197">
        <ele>841.77</ele>
        <time>2022-05-26T07:18:13Z</time>
      </trkpt>
      <trkpt lat="44.79673" lon="5.07192">
        <ele>841.29</ele>
        <time>2022-05-26T07:18:25Z</time>
      </trkpt>
      <trkpt lat="44.79665" lon="5.07188">
        <ele>839.85</ele>
        <time>2022-05-26T07:18:33Z</time>
      </trkpt>
      <trkpt lat="44.7965" lon="5.07188">
        <ele>837.93</ele>
        <time>2022-05-26T07:18:48Z</time>
      </trkpt>
      <trkpt lat="44.79645" lon="5.07189">
        <ele>837.93</ele>
        <time>2022-05-26T07:18:52Z</time>
      </trkpt>
      <trkpt lat="44.79631" lon="5.07187">
        <ele>836</ele>
        <time>2022-05-26T07:19:05Z</time>
      </trkpt>
      <trkpt lat="44.79622" lon="5.07181">
        <ele>835.04</ele>
        <time>2022-05-26T07:19:16Z</time>
      </trkpt>
      <trkpt lat="44.79609" lon="5.07176">
        <ele>833.12</ele>
        <time>2022-05-26T07:19:29Z</time>
      </trkpt>
      <trkpt lat="44.79606" lon="5.07173">
        <ele>833.12</ele>
        <time>2022-05-26T07:19:33Z</time>
      </trkpt>
      <trkpt lat="44.79597" lon="5.07167">
        <ele>832.16</ele>
        <time>2022-05-26T07:19:44Z</time>
      </trkpt>
      <trkpt lat="44.79595" lon="5.07166">
        <ele>831.68</ele>
        <time>2022-05-26T07:19:46Z</time>
      </trkpt>
      <trkpt lat="44.7958" lon="5.07158">
        <ele>829.27</ele>
        <time>2022-05-26T07:20:01Z</time>
      </trkpt>
      <trkpt lat="44.7957" lon="5.07146">
        <ele>828.31</ele>
        <time>2022-05-26T07:20:14Z</time>
      </trkpt>
      <trkpt lat="44.79563" lon="5.0714">
        <ele>825.91</ele>
        <time>2022-05-26T07:20:23Z</time>
      </trkpt>
      <trkpt lat="44.79557" lon="5.07135">
        <ele>825.43</ele>
        <time>2022-05-26T07:20:29Z</time>
      </trkpt>
      <trkpt lat="44.79554" lon="5.07135">
        <ele>824.95</ele>
        <time>2022-05-26T07:20:31Z</time>
      </trkpt>
      <trkpt lat="44.79543" lon="5.07131">
        <ele>824.95</ele>
        <time>2022-05-26T07:20:40Z</time>
      </trkpt>
      <trkpt lat="44.79533" lon="5.07121">
        <ele>822.55</ele>
        <time>2022-05-26T07:20:54Z</time>
      </trkpt>
      <trkpt lat="44.79524" lon="5.07112">
        <ele>819.18</ele>
        <time>2022-05-26T07:21:05Z</time>
      </trkpt>
      <trkpt lat="44.79522" lon="5.07107">
        <ele>818.22</ele>
        <time>2022-05-26T07:21:10Z</time>
      </trkpt>
      <trkpt lat="44.79517" lon="5.07114">
        <ele>816.78</ele>
        <time>2022-05-26T07:21:21Z</time>
      </trkpt>
      <trkpt lat="44.79509" lon="5.07139">
        <ele>816.3</ele>
        <time>2022-05-26T07:21:36Z</time>
      </trkpt>
      <trkpt lat="44.79508" lon="5.07141">
        <ele>816.3</ele>
        <time>2022-05-26T07:21:37Z</time>
      </trkpt>
      <trkpt lat="44.79506" lon="5.07146">
        <ele>815.82</ele>
        <time>2022-05-26T07:21:41Z</time>
      </trkpt>
      <trkpt lat="44.79507" lon="5.07158">
        <ele>817.74</ele>
        <time>2022-05-26T07:21:55Z</time>
      </trkpt>
      <trkpt lat="44.79509" lon="5.07161">
        <ele>818.22</ele>
        <time>2022-05-26T07:22:16Z</time>
      </trkpt>
      <trkpt lat="44.79509" lon="5.07161">
        <ele>817.74</ele>
        <time>2022-05-26T07:22:45Z</time>
      </trkpt>
      <trkpt lat="44.79508" lon="5.07163">
        <ele>816.78</ele>
        <time>2022-05-26T07:23:14Z</time>
      </trkpt>
      <trkpt lat="44.7951" lon="5.0716">
        <ele>817.26</ele>
        <time>2022-05-26T07:23:43Z</time>
      </trkpt>
      <trkpt lat="44.7951" lon="5.0716">
        <ele>815.82</ele>
        <time>2022-05-26T07:24:08Z</time>
      </trkpt>
      <trkpt lat="44.7951" lon="5.0716">
        <ele>817.26</ele>
        <time>2022-05-26T07:24:39Z</time>
      </trkpt>
      <trkpt lat="44.7951" lon="5.07162">
        <ele>817.26</ele>
        <time>2022-05-26T07:25:02Z</time>
      </trkpt>
      <trkpt lat="44.79508" lon="5.07165">
        <ele>817.26</ele>
        <time>2022-05-26T07:25:25Z</time>
      </trkpt>
      <trkpt lat="44.79507" lon="5.07161">
        <ele>817.26</ele>
        <time>2022-05-26T07:25:51Z</time>
      </trkpt>
      <trkpt lat="44.79511" lon="5.07163">
        <ele>816.78</ele>
        <time>2022-05-26T07:26:16Z</time>
      </trkpt>
      <trkpt lat="44.79504" lon="5.07165">
        <ele>817.26</ele>
        <time>2022-05-26T07:26:35Z</time>
      </trkpt>
      <trkpt lat="44.79506" lon="5.07159">
        <ele>816.78</ele>
        <time>2022-05-26T07:26:55Z</time>
      </trkpt>
      <trkpt lat="44.79505" lon="5.07155">
        <ele>816.3</ele>
        <time>2022-05-26T07:27:09Z</time>
      </trkpt>
      <trkpt lat="44.79505" lon="5.07155">
        <ele>816.78</ele>
        <time>2022-05-26T07:27:12Z</time>
      </trkpt>
      <trkpt lat="44.79503" lon="5.07149">
        <ele>816.3</ele>
        <time>2022-05-26T07:27:17Z</time>
      </trkpt>
      <trkpt lat="44.79501" lon="5.07153">
        <ele>817.26</ele>
        <time>2022-05-26T07:27:30Z</time>
      </trkpt>
      <trkpt lat="44.79501" lon="5.07153">
        <ele>817.26</ele>
        <time>2022-05-26T07:27:50Z</time>
      </trkpt>
      <trkpt lat="44.79502" lon="5.07153">
        <ele>817.26</ele>
        <time>2022-05-26T07:28:17Z</time>
      </trkpt>
      <trkpt lat="44.7951" lon="5.07159">
        <ele>815.82</ele>
        <time>2022-05-26T07:28:32Z</time>
      </trkpt>
      <trkpt lat="44.7951" lon="5.07159">
        <ele>815.82</ele>
        <time>2022-05-26T07:28:39Z</time>
      </trkpt>
      <trkpt lat="44.79509" lon="5.07155">
        <ele>816.78</ele>
        <time>2022-05-26T07:28:43Z</time>
      </trkpt>
      <trkpt lat="44.79507" lon="5.07152">
        <ele>818.7</ele>
        <time>2022-05-26T07:28:56Z</time>
      </trkpt>
      <trkpt lat="44.79509" lon="5.07149">
        <ele>818.22</ele>
        <time>2022-05-26T07:29:06Z</time>
      </trkpt>
      <trkpt lat="44.79516" lon="5.07129">
        <ele>815.82</ele>
        <time>2022-05-26T07:29:19Z</time>
      </trkpt>
      <trkpt lat="44.7952" lon="5.07115">
        <ele>816.3</ele>
        <time>2022-05-26T07:29:28Z</time>
      </trkpt>
      <trkpt lat="44.79522" lon="5.07107">
        <ele>817.26</ele>
        <time>2022-05-26T07:29:32Z</time>
      </trkpt>
      <trkpt lat="44.79518" lon="5.07101">
        <ele>817.74</ele>
        <time>2022-05-26T07:29:39Z</time>
      </trkpt>
      <trkpt lat="44.79502" lon="5.07093">
        <ele>818.22</ele>
        <time>2022-05-26T07:29:52Z</time>
      </trkpt>
      <trkpt lat="44.79497" lon="5.07093">
        <ele>818.7</ele>
        <time>2022-05-26T07:29:57Z</time>
      </trkpt>
      <trkpt lat="44.79493" lon="5.07092">
        <ele>819.18</ele>
        <time>2022-05-26T07:30:00Z</time>
      </trkpt>
      <trkpt lat="44.79487" lon="5.07085">
        <ele>820.14</ele>
        <time>2022-05-26T07:30:10Z</time>
      </trkpt>
      <trkpt lat="44.79482" lon="5.0708">
        <ele>822.55</ele>
        <time>2022-05-26T07:30:16Z</time>
      </trkpt>
      <trkpt lat="44.79481" lon="5.0708">
        <ele>821.58</ele>
        <time>2022-05-26T07:30:17Z</time>
      </trkpt>
      <trkpt lat="44.79472" lon="5.07073">
        <ele>824.47</ele>
        <time>2022-05-26T07:30:32Z</time>
      </trkpt>
      <trkpt lat="44.79465" lon="5.07069">
        <ele>825.43</ele>
        <time>2022-05-26T07:30:43Z</time>
      </trkpt>
      <trkpt lat="44.79453" lon="5.07066">
        <ele>825.91</ele>
        <time>2022-05-26T07:30:55Z</time>
      </trkpt>
      <trkpt lat="44.79437" lon="5.07061">
        <ele>824.95</ele>
        <time>2022-05-26T07:31:10Z</time>
      </trkpt>
      <trkpt lat="44.79434" lon="5.0706">
        <ele>824.95</ele>
        <time>2022-05-26T07:31:13Z</time>
      </trkpt>
      <trkpt lat="44.7942" lon="5.07056">
        <ele>826.87</ele>
        <time>2022-05-26T07:31:26Z</time>
      </trkpt>
      <trkpt lat="44.79418" lon="5.07055">
        <ele>826.39</ele>
        <time>2022-05-26T07:31:31Z</time>
      </trkpt>
      <trkpt lat="44.79412" lon="5.07049">
        <ele>826.87</ele>
        <time>2022-05-26T07:31:41Z</time>
      </trkpt>
      <trkpt lat="44.79406" lon="5.07046">
        <ele>827.83</ele>
        <time>2022-05-26T07:31:45Z</time>
      </trkpt>
      <trkpt lat="44.79394" lon="5.07042">
        <ele>825.43</ele>
        <time>2022-05-26T07:31:59Z</time>
      </trkpt>
      <trkpt lat="44.79385" lon="5.07043">
        <ele>823.51</ele>
        <time>2022-05-26T07:32:14Z</time>
      </trkpt>
      <trkpt lat="44.79381" lon="5.07043">
        <ele>823.51</ele>
        <time>2022-05-26T07:32:17Z</time>
      </trkpt>
      <trkpt lat="44.79359" lon="5.0704">
        <ele>823.51</ele>
        <time>2022-05-26T07:32:33Z</time>
      </trkpt>
      <trkpt lat="44.79343" lon="5.07038">
        <ele>823.51</ele>
        <time>2022-05-26T07:32:48Z</time>
      </trkpt>
      <trkpt lat="44.79334" lon="5.07035">
        <ele>823.51</ele>
        <time>2022-05-26T07:32:59Z</time>
      </trkpt>
      <trkpt lat="44.7932" lon="5.07032">
        <ele>821.1</ele>
        <time>2022-05-26T07:33:12Z</time>
      </trkpt>
      <trkpt lat="44.79314" lon="5.07028">
        <ele>823.99</ele>
        <time>2022-05-26T07:33:19Z</time>
      </trkpt>
      <trkpt lat="44.79299" lon="5.07029">
        <ele>823.03</ele>
        <time>2022-05-26T07:33:32Z</time>
      </trkpt>
      <trkpt lat="44.79286" lon="5.07025">
        <ele>822.06</ele>
        <time>2022-05-26T07:33:45Z</time>
      </trkpt>
      <trkpt lat="44.79274" lon="5.07023">
        <ele>821.58</ele>
        <time>2022-05-26T07:33:56Z</time>
      </trkpt>
      <trkpt lat="44.79267" lon="5.07023">
        <ele>821.58</ele>
        <time>2022-05-26T07:34:04Z</time>
      </trkpt>
      <trkpt lat="44.79263" lon="5.07024">
        <ele>821.58</ele>
        <time>2022-05-26T07:34:07Z</time>
      </trkpt>
      <trkpt lat="44.79261" lon="5.07023">
        <ele>821.58</ele>
        <time>2022-05-26T07:34:09Z</time>
      </trkpt>
      <trkpt lat="44.79255" lon="5.07024">
        <ele>820.62</ele>
        <time>2022-05-26T07:34:22Z</time>
      </trkpt>
      <trkpt lat="44.79241" lon="5.0703">
        <ele>817.74</ele>
        <time>2022-05-26T07:34:36Z</time>
      </trkpt>
      <trkpt lat="44.7924" lon="5.07031">
        <ele>817.26</ele>
        <time>2022-05-26T07:34:37Z</time>
      </trkpt>
      <trkpt lat="44.79233" lon="5.07031">
        <ele>816.78</ele>
        <time>2022-05-26T07:34:41Z</time>
      </trkpt>
      <trkpt lat="44.79214" lon="5.07029">
        <ele>816.3</ele>
        <time>2022-05-26T07:34:55Z</time>
      </trkpt>
      <trkpt lat="44.79212" lon="5.0703">
        <ele>816.3</ele>
        <time>2022-05-26T07:34:56Z</time>
      </trkpt>
      <trkpt lat="44.79201" lon="5.0703">
        <ele>815.82</ele>
        <time>2022-05-26T07:35:07Z</time>
      </trkpt>
      <trkpt lat="44.79184" lon="5.07033">
        <ele>814.85</ele>
        <time>2022-05-26T07:35:20Z</time>
      </trkpt>
      <trkpt lat="44.79173" lon="5.07032">
        <ele>814.37</ele>
        <time>2022-05-26T07:35:30Z</time>
      </trkpt>
      <trkpt lat="44.79152" lon="5.07036">
        <ele>814.85</ele>
        <time>2022-05-26T07:35:47Z</time>
      </trkpt>
      <trkpt lat="44.79135" lon="5.07033">
        <ele>815.82</ele>
        <time>2022-05-26T07:36:00Z</time>
      </trkpt>
      <trkpt lat="44.79123" lon="5.07028">
        <ele>815.34</ele>
        <time>2022-05-26T07:36:10Z</time>
      </trkpt>
      <trkpt lat="44.79114" lon="5.07016">
        <ele>816.3</ele>
        <time>2022-05-26T07:36:25Z</time>
      </trkpt>
      <trkpt lat="44.79116" lon="5.07012">
        <ele>813.41</ele>
        <time>2022-05-26T07:36:36Z</time>
      </trkpt>
      <trkpt lat="44.79116" lon="5.07012">
        <ele>811.97</ele>
        <time>2022-05-26T07:36:53Z</time>
      </trkpt>
      <trkpt lat="44.79116" lon="5.07013">
        <ele>812.45</ele>
        <time>2022-05-26T07:36:55Z</time>
      </trkpt>
      <trkpt lat="44.79115" lon="5.07015">
        <ele>813.41</ele>
        <time>2022-05-26T07:36:57Z</time>
      </trkpt>
      <trkpt lat="44.79114" lon="5.07016">
        <ele>815.34</ele>
        <time>2022-05-26T07:37:00Z</time>
      </trkpt>
      <trkpt lat="44.7911" lon="5.07018">
        <ele>817.26</ele>
        <time>2022-05-26T07:37:11Z</time>
      </trkpt>
      <trkpt lat="44.79097" lon="5.07019">
        <ele>815.34</ele>
        <time>2022-05-26T07:37:23Z</time>
      </trkpt>
      <trkpt lat="44.7909" lon="5.07016">
        <ele>813.89</ele>
        <time>2022-05-26T07:37:36Z</time>
      </trkpt>
      <trkpt lat="44.79088" lon="5.07016">
        <ele>813.89</ele>
        <time>2022-05-26T07:38:00Z</time>
      </trkpt>
      <trkpt lat="44.79087" lon="5.07016">
        <ele>813.89</ele>
        <time>2022-05-26T07:38:19Z</time>
      </trkpt>
      <trkpt lat="44.79086" lon="5.07016">
        <ele>813.89</ele>
        <time>2022-05-26T07:38:39Z</time>
      </trkpt>
      <trkpt lat="44.79086" lon="5.07016">
        <ele>814.37</ele>
        <time>2022-05-26T07:39:03Z</time>
      </trkpt>
      <trkpt lat="44.79083" lon="5.07016">
        <ele>813.89</ele>
        <time>2022-05-26T07:39:24Z</time>
      </trkpt>
      <trkpt lat="44.7908" lon="5.07015">
        <ele>813.89</ele>
        <time>2022-05-26T07:39:26Z</time>
      </trkpt>
      <trkpt lat="44.79068" lon="5.0701">
        <ele>812.45</ele>
        <time>2022-05-26T07:39:35Z</time>
      </trkpt>
      <trkpt lat="44.79057" lon="5.07018">
        <ele>809.09</ele>
        <time>2022-05-26T07:39:48Z</time>
      </trkpt>
      <trkpt lat="44.79041" lon="5.0702">
        <ele>805.24</ele>
        <time>2022-05-26T07:40:02Z</time>
      </trkpt>
      <trkpt lat="44.79024" lon="5.07023">
        <ele>801.88</ele>
        <time>2022-05-26T07:40:16Z</time>
      </trkpt>
      <trkpt lat="44.79007" lon="5.0703">
        <ele>798.99</ele>
        <time>2022-05-26T07:40:30Z</time>
      </trkpt>
      <trkpt lat="44.78994" lon="5.07043">
        <ele>795.63</ele>
        <time>2022-05-26T07:40:43Z</time>
      </trkpt>
      <trkpt lat="44.78975" lon="5.0706">
        <ele>793.22</ele>
        <time>2022-05-26T07:41:00Z</time>
      </trkpt>
      <trkpt lat="44.78961" lon="5.07063">
        <ele>789.86</ele>
        <time>2022-05-26T07:41:12Z</time>
      </trkpt>
      <trkpt lat="44.78943" lon="5.07076">
        <ele>787.46</ele>
        <time>2022-05-26T07:41:28Z</time>
      </trkpt>
      <trkpt lat="44.78927" lon="5.07079">
        <ele>784.57</ele>
        <time>2022-05-26T07:41:43Z</time>
      </trkpt>
      <trkpt lat="44.78924" lon="5.07079">
        <ele>783.61</ele>
        <time>2022-05-26T07:41:45Z</time>
      </trkpt>
      <trkpt lat="44.7891" lon="5.07078">
        <ele>780.25</ele>
        <time>2022-05-26T07:41:58Z</time>
      </trkpt>
      <trkpt lat="44.789" lon="5.07078">
        <ele>776.88</ele>
        <time>2022-05-26T07:42:09Z</time>
      </trkpt>
      <trkpt lat="44.78882" lon="5.07081">
        <ele>775.44</ele>
        <time>2022-05-26T07:42:25Z</time>
      </trkpt>
      <trkpt lat="44.7887" lon="5.07084">
        <ele>773.52</ele>
        <time>2022-05-26T07:42:34Z</time>
      </trkpt>
      <trkpt lat="44.78867" lon="5.07084">
        <ele>774.48</ele>
        <time>2022-05-26T07:42:36Z</time>
      </trkpt>
      <trkpt lat="44.78848" lon="5.0709">
        <ele>771.6</ele>
        <time>2022-05-26T07:42:53Z</time>
      </trkpt>
      <trkpt lat="44.78832" lon="5.07089">
        <ele>768.71</ele>
        <time>2022-05-26T07:43:08Z</time>
      </trkpt>
      <trkpt lat="44.78822" lon="5.07084">
        <ele>766.31</ele>
        <time>2022-05-26T07:43:19Z</time>
      </trkpt>
      <trkpt lat="44.78809" lon="5.07075">
        <ele>763.42</ele>
        <time>2022-05-26T07:43:33Z</time>
      </trkpt>
      <trkpt lat="44.78789" lon="5.07067">
        <ele>761.5</ele>
        <time>2022-05-26T07:43:50Z</time>
      </trkpt>
      <trkpt lat="44.78772" lon="5.07065">
        <ele>761.98</ele>
        <time>2022-05-26T07:44:04Z</time>
      </trkpt>
      <trkpt lat="44.78747" lon="5.07065">
        <ele>760.54</ele>
        <time>2022-05-26T07:44:22Z</time>
      </trkpt>
      <trkpt lat="44.78738" lon="5.07069">
        <ele>758.62</ele>
        <time>2022-05-26T07:44:29Z</time>
      </trkpt>
      <trkpt lat="44.78721" lon="5.07082">
        <ele>755.73</ele>
        <time>2022-05-26T07:44:46Z</time>
      </trkpt>
      <trkpt lat="44.78708" lon="5.07089">
        <ele>752.37</ele>
        <time>2022-05-26T07:45:01Z</time>
      </trkpt>
      <trkpt lat="44.78697" lon="5.07096">
        <ele>749</ele>
        <time>2022-05-26T07:45:13Z</time>
      </trkpt>
      <trkpt lat="44.78687" lon="5.07102">
        <ele>746.6</ele>
        <time>2022-05-26T07:45:29Z</time>
      </trkpt>
      <trkpt lat="44.78675" lon="5.07103">
        <ele>743.72</ele>
        <time>2022-05-26T07:45:44Z</time>
      </trkpt>
      <trkpt lat="44.78658" lon="5.07102">
        <ele>741.31</ele>
        <time>2022-05-26T07:46:00Z</time>
      </trkpt>
      <trkpt lat="44.78646" lon="5.07102">
        <ele>737.95</ele>
        <time>2022-05-26T07:46:14Z</time>
      </trkpt>
      <trkpt lat="44.78635" lon="5.07103">
        <ele>735.07</ele>
        <time>2022-05-26T07:46:24Z</time>
      </trkpt>
      <trkpt lat="44.78624" lon="5.07104">
        <ele>734.58</ele>
        <time>2022-05-26T07:46:33Z</time>
      </trkpt>
      <trkpt lat="44.78607" lon="5.07099">
        <ele>731.22</ele>
        <time>2022-05-26T07:46:49Z</time>
      </trkpt>
      <trkpt lat="44.78602" lon="5.07097">
        <ele>729.78</ele>
        <time>2022-05-26T07:46:54Z</time>
      </trkpt>
      <trkpt lat="44.78594" lon="5.07093">
        <ele>727.37</ele>
        <time>2022-05-26T07:47:02Z</time>
      </trkpt>
      <trkpt lat="44.78586" lon="5.07088">
        <ele>725.45</ele>
        <time>2022-05-26T07:47:15Z</time>
      </trkpt>
      <trkpt lat="44.78585" lon="5.07087">
        <ele>724.97</ele>
        <time>2022-05-26T07:47:19Z</time>
      </trkpt>
      <trkpt lat="44.78581" lon="5.07083">
        <ele>723.53</ele>
        <time>2022-05-26T07:47:26Z</time>
      </trkpt>
      <trkpt lat="44.78577" lon="5.07081">
        <ele>722.09</ele>
        <time>2022-05-26T07:47:40Z</time>
      </trkpt>
      <trkpt lat="44.78575" lon="5.07078">
        <ele>721.61</ele>
        <time>2022-05-26T07:47:46Z</time>
      </trkpt>
      <trkpt lat="44.78561" lon="5.07069">
        <ele>718.72</ele>
        <time>2022-05-26T07:48:01Z</time>
      </trkpt>
      <trkpt lat="44.78539" lon="5.07073">
        <ele>716.8</ele>
        <time>2022-05-26T07:48:18Z</time>
      </trkpt>
      <trkpt lat="44.78537" lon="5.07076">
        <ele>716.32</ele>
        <time>2022-05-26T07:48:20Z</time>
      </trkpt>
      <trkpt lat="44.78524" lon="5.07089">
        <ele>713.92</ele>
        <time>2022-05-26T07:48:35Z</time>
      </trkpt>
      <trkpt lat="44.78509" lon="5.07101">
        <ele>712.47</ele>
        <time>2022-05-26T07:48:50Z</time>
      </trkpt>
      <trkpt lat="44.78506" lon="5.07106">
        <ele>710.07</ele>
        <time>2022-05-26T07:49:00Z</time>
      </trkpt>
      <trkpt lat="44.78487" lon="5.07126">
        <ele>706.71</ele>
        <time>2022-05-26T07:49:16Z</time>
      </trkpt>
      <trkpt lat="44.78476" lon="5.07143">
        <ele>704.3</ele>
        <time>2022-05-26T07:49:32Z</time>
      </trkpt>
      <trkpt lat="44.78466" lon="5.07156">
        <ele>700.94</ele>
        <time>2022-05-26T07:49:43Z</time>
      </trkpt>
      <trkpt lat="44.78458" lon="5.07169">
        <ele>697.57</ele>
        <time>2022-05-26T07:49:57Z</time>
      </trkpt>
      <trkpt lat="44.78447" lon="5.0719">
        <ele>694.69</ele>
        <time>2022-05-26T07:50:12Z</time>
      </trkpt>
      <trkpt lat="44.78432" lon="5.07209">
        <ele>691.81</ele>
        <time>2022-05-26T07:50:29Z</time>
      </trkpt>
      <trkpt lat="44.78417" lon="5.07226">
        <ele>689.4</ele>
        <time>2022-05-26T07:50:45Z</time>
      </trkpt>
      <trkpt lat="44.78411" lon="5.07237">
        <ele>687</ele>
        <time>2022-05-26T07:50:53Z</time>
      </trkpt>
      <trkpt lat="44.78403" lon="5.07256">
        <ele>683.63</ele>
        <time>2022-05-26T07:51:06Z</time>
      </trkpt>
      <trkpt lat="44.78389" lon="5.07276">
        <ele>681.71</ele>
        <time>2022-05-26T07:51:22Z</time>
      </trkpt>
      <trkpt lat="44.78373" lon="5.07292">
        <ele>681.23</ele>
        <time>2022-05-26T07:51:40Z</time>
      </trkpt>
      <trkpt lat="44.78359" lon="5.07301">
        <ele>680.27</ele>
        <time>2022-05-26T07:51:55Z</time>
      </trkpt>
      <trkpt lat="44.78356" lon="5.07302">
        <ele>679.79</ele>
        <time>2022-05-26T07:51:57Z</time>
      </trkpt>
      <trkpt lat="44.78337" lon="5.07313">
        <ele>679.31</ele>
        <time>2022-05-26T07:52:14Z</time>
      </trkpt>
      <trkpt lat="44.78318" lon="5.07323">
        <ele>678.83</ele>
        <time>2022-05-26T07:52:30Z</time>
      </trkpt>
      <trkpt lat="44.78299" lon="5.07334">
        <ele>680.75</ele>
        <time>2022-05-26T07:52:49Z</time>
      </trkpt>
      <trkpt lat="44.7827" lon="5.07341">
        <ele>682.67</ele>
        <time>2022-05-26T07:53:08Z</time>
      </trkpt>
      <trkpt lat="44.78253" lon="5.07352">
        <ele>682.67</ele>
        <time>2022-05-26T07:53:24Z</time>
      </trkpt>
      <trkpt lat="44.78235" lon="5.07361">
        <ele>681.71</ele>
        <time>2022-05-26T07:53:41Z</time>
      </trkpt>
      <trkpt lat="44.7822" lon="5.07365">
        <ele>681.23</ele>
        <time>2022-05-26T07:53:57Z</time>
      </trkpt>
      <trkpt lat="44.78187" lon="5.07372">
        <ele>679.79</ele>
        <time>2022-05-26T07:54:17Z</time>
      </trkpt>
      <trkpt lat="44.78163" lon="5.07375">
        <ele>677.87</ele>
        <time>2022-05-26T07:54:35Z</time>
      </trkpt>
      <trkpt lat="44.78147" lon="5.0738">
        <ele>676.91</ele>
        <time>2022-05-26T07:54:48Z</time>
      </trkpt>
      <trkpt lat="44.78125" lon="5.07382">
        <ele>674.02</ele>
        <time>2022-05-26T07:55:03Z</time>
      </trkpt>
      <trkpt lat="44.78104" lon="5.07383">
        <ele>671.14</ele>
        <time>2022-05-26T07:55:20Z</time>
      </trkpt>
      <trkpt lat="44.78101" lon="5.07384">
        <ele>671.14</ele>
        <time>2022-05-26T07:55:22Z</time>
      </trkpt>
      <trkpt lat="44.7808" lon="5.07387">
        <ele>669.22</ele>
        <time>2022-05-26T07:55:38Z</time>
      </trkpt>
      <trkpt lat="44.7806" lon="5.07391">
        <ele>665.85</ele>
        <time>2022-05-26T07:55:52Z</time>
      </trkpt>
      <trkpt lat="44.78045" lon="5.07389">
        <ele>662.49</ele>
        <time>2022-05-26T07:56:10Z</time>
      </trkpt>
      <trkpt lat="44.78027" lon="5.07384">
        <ele>658.64</ele>
        <time>2022-05-26T07:56:23Z</time>
      </trkpt>
      <trkpt lat="44.78027" lon="5.07384">
        <ele>662.01</ele>
        <time>2022-05-26T07:56:24Z</time>
      </trkpt>
      <trkpt lat="44.78012" lon="5.07379">
        <ele>658.64</ele>
        <time>2022-05-26T07:56:37Z</time>
      </trkpt>
      <trkpt lat="44.77995" lon="5.07375">
        <ele>656.72</ele>
        <time>2022-05-26T07:56:54Z</time>
      </trkpt>
      <trkpt lat="44.77973" lon="5.0737">
        <ele>654.31</ele>
        <time>2022-05-26T07:57:08Z</time>
      </trkpt>
      <trkpt lat="44.7795" lon="5.07369">
        <ele>652.87</ele>
        <time>2022-05-26T07:57:22Z</time>
      </trkpt>
      <trkpt lat="44.77945" lon="5.07367">
        <ele>652.39</ele>
        <time>2022-05-26T07:57:27Z</time>
      </trkpt>
      <trkpt lat="44.77942" lon="5.07366">
        <ele>651.91</ele>
        <time>2022-05-26T07:57:29Z</time>
      </trkpt>
      <trkpt lat="44.7794" lon="5.07365">
        <ele>650.95</ele>
        <time>2022-05-26T07:57:31Z</time>
      </trkpt>
      <trkpt lat="44.77927" lon="5.07362">
        <ele>650.47</ele>
        <time>2022-05-26T07:57:42Z</time>
      </trkpt>
      <trkpt lat="44.77913" lon="5.07356">
        <ele>648.55</ele>
        <time>2022-05-26T07:57:53Z</time>
      </trkpt>
      <trkpt lat="44.77902" lon="5.0735">
        <ele>647.1</ele>
        <time>2022-05-26T07:58:01Z</time>
      </trkpt>
      <trkpt lat="44.77899" lon="5.07348">
        <ele>648.55</ele>
        <time>2022-05-26T07:58:03Z</time>
      </trkpt>
      <trkpt lat="44.77885" lon="5.07338">
        <ele>645.66</ele>
        <time>2022-05-26T07:58:17Z</time>
      </trkpt>
      <trkpt lat="44.77871" lon="5.07329">
        <ele>643.26</ele>
        <time>2022-05-26T07:58:29Z</time>
      </trkpt>
      <trkpt lat="44.77861" lon="5.07323">
        <ele>641.34</ele>
        <time>2022-05-26T07:58:37Z</time>
      </trkpt>
      <trkpt lat="44.77852" lon="5.07311">
        <ele>638.93</ele>
        <time>2022-05-26T07:58:49Z</time>
      </trkpt>
      <trkpt lat="44.77846" lon="5.07297">
        <ele>636.05</ele>
        <time>2022-05-26T07:59:00Z</time>
      </trkpt>
      <trkpt lat="44.77838" lon="5.07285">
        <ele>632.68</ele>
        <time>2022-05-26T07:59:13Z</time>
      </trkpt>
      <trkpt lat="44.77836" lon="5.07278">
        <ele>632.2</ele>
        <time>2022-05-26T07:59:18Z</time>
      </trkpt>
      <trkpt lat="44.77833" lon="5.07272">
        <ele>630.76</ele>
        <time>2022-05-26T07:59:24Z</time>
      </trkpt>
      <trkpt lat="44.77831" lon="5.07267">
        <ele>629.8</ele>
        <time>2022-05-26T07:59:28Z</time>
      </trkpt>
      <trkpt lat="44.7783" lon="5.07263">
        <ele>629.32</ele>
        <time>2022-05-26T07:59:31Z</time>
      </trkpt>
      <trkpt lat="44.77829" lon="5.07258">
        <ele>627.4</ele>
        <time>2022-05-26T07:59:35Z</time>
      </trkpt>
      <trkpt lat="44.77827" lon="5.07243">
        <ele>624.51</ele>
        <time>2022-05-26T07:59:47Z</time>
      </trkpt>
      <trkpt lat="44.77824" lon="5.0723">
        <ele>621.63</ele>
        <time>2022-05-26T07:59:58Z</time>
      </trkpt>
      <trkpt lat="44.77823" lon="5.07223">
        <ele>620.67</ele>
        <time>2022-05-26T08:00:04Z</time>
      </trkpt>
      <trkpt lat="44.77818" lon="5.07212">
        <ele>618.75</ele>
        <time>2022-05-26T08:00:13Z</time>
      </trkpt>
      <trkpt lat="44.77815" lon="5.07192">
        <ele>614.9</ele>
        <time>2022-05-26T08:00:27Z</time>
      </trkpt>
      <trkpt lat="44.77805" lon="5.07183">
        <ele>613.46</ele>
        <time>2022-05-26T08:00:40Z</time>
      </trkpt>
      <trkpt lat="44.7779" lon="5.07189">
        <ele>610.57</ele>
        <time>2022-05-26T08:00:53Z</time>
      </trkpt>
      <trkpt lat="44.7777" lon="5.07202">
        <ele>607.21</ele>
        <time>2022-05-26T08:01:11Z</time>
      </trkpt>
      <trkpt lat="44.77761" lon="5.07207">
        <ele>605.77</ele>
        <time>2022-05-26T08:01:17Z</time>
      </trkpt>
      <trkpt lat="44.77748" lon="5.07218">
        <ele>603.85</ele>
        <time>2022-05-26T08:01:31Z</time>
      </trkpt>
      <trkpt lat="44.77742" lon="5.07224">
        <ele>601.92</ele>
        <time>2022-05-26T08:01:38Z</time>
      </trkpt>
      <trkpt lat="44.77738" lon="5.07228">
        <ele>601.44</ele>
        <time>2022-05-26T08:01:42Z</time>
      </trkpt>
      <trkpt lat="44.77722" lon="5.07244">
        <ele>598.56</ele>
        <time>2022-05-26T08:01:57Z</time>
      </trkpt>
      <trkpt lat="44.77708" lon="5.07252">
        <ele>595.67</ele>
        <time>2022-05-26T08:02:12Z</time>
      </trkpt>
      <trkpt lat="44.77695" lon="5.07257">
        <ele>592.31</ele>
        <time>2022-05-26T08:02:25Z</time>
      </trkpt>
      <trkpt lat="44.77683" lon="5.07261">
        <ele>588.95</ele>
        <time>2022-05-26T08:02:41Z</time>
      </trkpt>
      <trkpt lat="44.77682" lon="5.07265">
        <ele>588.46</ele>
        <time>2022-05-26T08:02:43Z</time>
      </trkpt>
      <trkpt lat="44.77678" lon="5.07267">
        <ele>587.5</ele>
        <time>2022-05-26T08:02:49Z</time>
      </trkpt>
      <trkpt lat="44.77675" lon="5.07267">
        <ele>587.02</ele>
        <time>2022-05-26T08:02:52Z</time>
      </trkpt>
      <trkpt lat="44.77664" lon="5.07261">
        <ele>583.18</ele>
        <time>2022-05-26T08:03:06Z</time>
      </trkpt>
      <trkpt lat="44.77652" lon="5.07249">
        <ele>580.77</ele>
        <time>2022-05-26T08:03:22Z</time>
      </trkpt>
      <trkpt lat="44.77639" lon="5.07234">
        <ele>576.45</ele>
        <time>2022-05-26T08:03:37Z</time>
      </trkpt>
      <trkpt lat="44.77628" lon="5.07221">
        <ele>573.56</ele>
        <time>2022-05-26T08:03:52Z</time>
      </trkpt>
      <trkpt lat="44.77616" lon="5.07212">
        <ele>570.2</ele>
        <time>2022-05-26T08:04:06Z</time>
      </trkpt>
      <trkpt lat="44.77606" lon="5.07203">
        <ele>567.8</ele>
        <time>2022-05-26T08:04:18Z</time>
      </trkpt>
      <trkpt lat="44.77601" lon="5.072">
        <ele>566.35</ele>
        <time>2022-05-26T08:04:24Z</time>
      </trkpt>
      <trkpt lat="44.77591" lon="5.07192">
        <ele>563.47</ele>
        <time>2022-05-26T08:04:39Z</time>
      </trkpt>
      <trkpt lat="44.77579" lon="5.07182">
        <ele>560.59</ele>
        <time>2022-05-26T08:04:53Z</time>
      </trkpt>
      <trkpt lat="44.77568" lon="5.07172">
        <ele>557.7</ele>
        <time>2022-05-26T08:05:07Z</time>
      </trkpt>
      <trkpt lat="44.7756" lon="5.0717">
        <ele>555.78</ele>
        <time>2022-05-26T08:05:15Z</time>
      </trkpt>
      <trkpt lat="44.77555" lon="5.07165">
        <ele>554.34</ele>
        <time>2022-05-26T08:05:22Z</time>
      </trkpt>
      <trkpt lat="44.77548" lon="5.07162">
        <ele>552.41</ele>
        <time>2022-05-26T08:05:31Z</time>
      </trkpt>
      <trkpt lat="44.77544" lon="5.07159">
        <ele>551.45</ele>
        <time>2022-05-26T08:05:36Z</time>
      </trkpt>
      <trkpt lat="44.77537" lon="5.07148">
        <ele>550.01</ele>
        <time>2022-05-26T08:05:45Z</time>
      </trkpt>
      <trkpt lat="44.77522" lon="5.07134">
        <ele>548.09</ele>
        <time>2022-05-26T08:05:58Z</time>
      </trkpt>
      <trkpt lat="44.77508" lon="5.07128">
        <ele>546.17</ele>
        <time>2022-05-26T08:06:15Z</time>
      </trkpt>
      <trkpt lat="44.77489" lon="5.07121">
        <ele>542.8</ele>
        <time>2022-05-26T08:06:33Z</time>
      </trkpt>
      <trkpt lat="44.77473" lon="5.07121">
        <ele>539.44</ele>
        <time>2022-05-26T08:06:47Z</time>
      </trkpt>
      <trkpt lat="44.77462" lon="5.07122">
        <ele>536.07</ele>
        <time>2022-05-26T08:06:59Z</time>
      </trkpt>
      <trkpt lat="44.77449" lon="5.07122">
        <ele>532.71</ele>
        <time>2022-05-26T08:07:12Z</time>
      </trkpt>
      <trkpt lat="44.77433" lon="5.07129">
        <ele>530.3</ele>
        <time>2022-05-26T08:07:25Z</time>
      </trkpt>
      <trkpt lat="44.77425" lon="5.07129">
        <ele>526.94</ele>
        <time>2022-05-26T08:07:39Z</time>
      </trkpt>
      <trkpt lat="44.77411" lon="5.07136">
        <ele>523.58</ele>
        <time>2022-05-26T08:07:51Z</time>
      </trkpt>
      <trkpt lat="44.77394" lon="5.07143">
        <ele>520.21</ele>
        <time>2022-05-26T08:08:06Z</time>
      </trkpt>
      <trkpt lat="44.77389" lon="5.07146">
        <ele>518.29</ele>
        <time>2022-05-26T08:08:13Z</time>
      </trkpt>
      <trkpt lat="44.77386" lon="5.07148">
        <ele>518.29</ele>
        <time>2022-05-26T08:08:15Z</time>
      </trkpt>
      <trkpt lat="44.77377" lon="5.07155">
        <ele>516.85</ele>
        <time>2022-05-26T08:08:27Z</time>
      </trkpt>
      <trkpt lat="44.77371" lon="5.07162">
        <ele>514.92</ele>
        <time>2022-05-26T08:08:47Z</time>
      </trkpt>
      <trkpt lat="44.77364" lon="5.07169">
        <ele>511.56</ele>
        <time>2022-05-26T08:08:57Z</time>
      </trkpt>
      <trkpt lat="44.77354" lon="5.0718">
        <ele>508.67</ele>
        <time>2022-05-26T08:09:09Z</time>
      </trkpt>
      <trkpt lat="44.77341" lon="5.0719">
        <ele>506.75</ele>
        <time>2022-05-26T08:09:23Z</time>
      </trkpt>
      <trkpt lat="44.77336" lon="5.07197">
        <ele>505.79</ele>
        <time>2022-05-26T08:09:27Z</time>
      </trkpt>
      <trkpt lat="44.77322" lon="5.07217">
        <ele>501.95</ele>
        <time>2022-05-26T08:09:42Z</time>
      </trkpt>
      <trkpt lat="44.77313" lon="5.07231">
        <ele>500.98</ele>
        <time>2022-05-26T08:09:54Z</time>
      </trkpt>
      <trkpt lat="44.77307" lon="5.07236">
        <ele>497.62</ele>
        <time>2022-05-26T08:10:02Z</time>
      </trkpt>
      <trkpt lat="44.77306" lon="5.07237">
        <ele>500.5</ele>
        <time>2022-05-26T08:10:03Z</time>
      </trkpt>
      <trkpt lat="44.77302" lon="5.07238">
        <ele>498.1</ele>
        <time>2022-05-26T08:10:15Z</time>
      </trkpt>
      <trkpt lat="44.77294" lon="5.07243">
        <ele>496.66</ele>
        <time>2022-05-26T08:10:32Z</time>
      </trkpt>
      <trkpt lat="44.77275" lon="5.07252">
        <ele>493.77</ele>
        <time>2022-05-26T08:10:47Z</time>
      </trkpt>
      <trkpt lat="44.77257" lon="5.0726">
        <ele>490.89</ele>
        <time>2022-05-26T08:11:02Z</time>
      </trkpt>
      <trkpt lat="44.77255" lon="5.0726">
        <ele>490.41</ele>
        <time>2022-05-26T08:11:04Z</time>
      </trkpt>
      <trkpt lat="44.77251" lon="5.0726">
        <ele>489.93</ele>
        <time>2022-05-26T08:11:07Z</time>
      </trkpt>
      <trkpt lat="44.77241" lon="5.07264">
        <ele>489.45</ele>
        <time>2022-05-26T08:11:15Z</time>
      </trkpt>
      <trkpt lat="44.77238" lon="5.07265">
        <ele>488.97</ele>
        <time>2022-05-26T08:11:18Z</time>
      </trkpt>
      <trkpt lat="44.77233" lon="5.07273">
        <ele>488.01</ele>
        <time>2022-05-26T08:11:34Z</time>
      </trkpt>
      <trkpt lat="44.77233" lon="5.07272">
        <ele>487.53</ele>
        <time>2022-05-26T08:11:49Z</time>
      </trkpt>
      <trkpt lat="44.77234" lon="5.07272">
        <ele>487.53</ele>
        <time>2022-05-26T08:12:09Z</time>
      </trkpt>
      <trkpt lat="44.77235" lon="5.07274">
        <ele>487.53</ele>
        <time>2022-05-26T08:12:30Z</time>
      </trkpt>
      <trkpt lat="44.77235" lon="5.07274">
        <ele>483.2</ele>
        <time>2022-05-26T08:12:51Z</time>
      </trkpt>
      <trkpt lat="44.77235" lon="5.07274">
        <ele>491.37</ele>
        <time>2022-05-26T08:12:52Z</time>
      </trkpt>
      <trkpt lat="44.77235" lon="5.07274">
        <ele>488.01</ele>
        <time>2022-05-26T08:12:53Z</time>
      </trkpt>
      <trkpt lat="44.77235" lon="5.07274">
        <ele>488.01</ele>
        <time>2022-05-26T08:13:14Z</time>
      </trkpt>
      <trkpt lat="44.77235" lon="5.07274">
        <ele>487.53</ele>
        <time>2022-05-26T08:13:38Z</time>
      </trkpt>
      <trkpt lat="44.77236" lon="5.07274">
        <ele>488.01</ele>
        <time>2022-05-26T08:13:50Z</time>
      </trkpt>
      <trkpt lat="44.77236" lon="5.07274">
        <ele>488.01</ele>
        <time>2022-05-26T08:14:22Z</time>
      </trkpt>
      <trkpt lat="44.77236" lon="5.07272">
        <ele>486.56</ele>
        <time>2022-05-26T08:14:32Z</time>
      </trkpt>
      <trkpt lat="44.77234" lon="5.07261">
        <ele>486.56</ele>
        <time>2022-05-26T08:14:43Z</time>
      </trkpt>
      <trkpt lat="44.77234" lon="5.07258">
        <ele>488.01</ele>
        <time>2022-05-26T08:14:46Z</time>
      </trkpt>
      <trkpt lat="44.77237" lon="5.07248">
        <ele>489.45</ele>
        <time>2022-05-26T08:14:59Z</time>
      </trkpt>
      <trkpt lat="44.77239" lon="5.07229">
        <ele>491.85</ele>
        <time>2022-05-26T08:15:13Z</time>
      </trkpt>
      <trkpt lat="44.7724" lon="5.07227">
        <ele>490.89</ele>
        <time>2022-05-26T08:15:14Z</time>
      </trkpt>
      <trkpt lat="44.77241" lon="5.07223">
        <ele>491.85</ele>
        <time>2022-05-26T08:15:17Z</time>
      </trkpt>
      <trkpt lat="44.77243" lon="5.07207">
        <ele>494.74</ele>
        <time>2022-05-26T08:15:29Z</time>
      </trkpt>
      <trkpt lat="44.77246" lon="5.07189">
        <ele>496.66</ele>
        <time>2022-05-26T08:15:44Z</time>
      </trkpt>
      <trkpt lat="44.7725" lon="5.07175">
        <ele>499.54</ele>
        <time>2022-05-26T08:15:57Z</time>
      </trkpt>
      <trkpt lat="44.77255" lon="5.07159">
        <ele>502.43</ele>
        <time>2022-05-26T08:16:11Z</time>
      </trkpt>
      <trkpt lat="44.77261" lon="5.07151">
        <ele>505.79</ele>
        <time>2022-05-26T08:16:25Z</time>
      </trkpt>
      <trkpt lat="44.77267" lon="5.07137">
        <ele>507.71</ele>
        <time>2022-05-26T08:16:40Z</time>
      </trkpt>
      <trkpt lat="44.77273" lon="5.07125">
        <ele>511.56</ele>
        <time>2022-05-26T08:16:52Z</time>
      </trkpt>
      <trkpt lat="44.7728" lon="5.07114">
        <ele>513</ele>
        <time>2022-05-26T08:17:01Z</time>
      </trkpt>
      <trkpt lat="44.77289" lon="5.07097">
        <ele>514.92</ele>
        <time>2022-05-26T08:17:17Z</time>
      </trkpt>
      <trkpt lat="44.77289" lon="5.0709">
        <ele>515.88</ele>
        <time>2022-05-26T08:17:29Z</time>
      </trkpt>
      <trkpt lat="44.77288" lon="5.07081">
        <ele>515.88</ele>
        <time>2022-05-26T08:17:35Z</time>
      </trkpt>
      <trkpt lat="44.77288" lon="5.07061">
        <ele>518.29</ele>
        <time>2022-05-26T08:17:47Z</time>
      </trkpt>
      <trkpt lat="44.77287" lon="5.07055">
        <ele>519.25</ele>
        <time>2022-05-26T08:17:52Z</time>
      </trkpt>
      <trkpt lat="44.77287" lon="5.07046">
        <ele>519.73</ele>
        <time>2022-05-26T08:17:57Z</time>
      </trkpt>
      <trkpt lat="44.77286" lon="5.07023">
        <ele>521.17</ele>
        <time>2022-05-26T08:18:14Z</time>
      </trkpt>
      <trkpt lat="44.77283" lon="5.07011">
        <ele>521.17</ele>
        <time>2022-05-26T08:18:29Z</time>
      </trkpt>
      <trkpt lat="44.7728" lon="5.07007">
        <ele>522.61</ele>
        <time>2022-05-26T08:18:32Z</time>
      </trkpt>
      <trkpt lat="44.77269" lon="5.0699">
        <ele>524.06</ele>
        <time>2022-05-26T08:18:48Z</time>
      </trkpt>
      <trkpt lat="44.77268" lon="5.06988">
        <ele>525.5</ele>
        <time>2022-05-26T08:18:50Z</time>
      </trkpt>
      <trkpt lat="44.77263" lon="5.0697">
        <ele>526.46</ele>
        <time>2022-05-26T08:19:04Z</time>
      </trkpt>
      <trkpt lat="44.77256" lon="5.06952">
        <ele>528.38</ele>
        <time>2022-05-26T08:19:19Z</time>
      </trkpt>
      <trkpt lat="44.77253" lon="5.06933">
        <ele>531.27</ele>
        <time>2022-05-26T08:19:34Z</time>
      </trkpt>
      <trkpt lat="44.77253" lon="5.06916">
        <ele>534.15</ele>
        <time>2022-05-26T08:19:48Z</time>
      </trkpt>
      <trkpt lat="44.77247" lon="5.069">
        <ele>535.11</ele>
        <time>2022-05-26T08:20:01Z</time>
      </trkpt>
      <trkpt lat="44.77242" lon="5.06885">
        <ele>537.51</ele>
        <time>2022-05-26T08:20:16Z</time>
      </trkpt>
      <trkpt lat="44.77243" lon="5.06872">
        <ele>538.96</ele>
        <time>2022-05-26T08:20:28Z</time>
      </trkpt>
      <trkpt lat="44.77243" lon="5.06872">
        <ele>538.96</ele>
        <time>2022-05-26T08:20:46Z</time>
      </trkpt>
      <trkpt lat="44.77243" lon="5.06872">
        <ele>537.99</ele>
        <time>2022-05-26T08:21:10Z</time>
      </trkpt>
      <trkpt lat="44.77244" lon="5.06868">
        <ele>537.99</ele>
        <time>2022-05-26T08:21:19Z</time>
      </trkpt>
      <trkpt lat="44.77246" lon="5.06849">
        <ele>540.88</ele>
        <time>2022-05-26T08:21:32Z</time>
      </trkpt>
      <trkpt lat="44.77243" lon="5.06832">
        <ele>544.24</ele>
        <time>2022-05-26T08:21:45Z</time>
      </trkpt>
      <trkpt lat="44.77243" lon="5.06814">
        <ele>545.69</ele>
        <time>2022-05-26T08:21:58Z</time>
      </trkpt>
      <trkpt lat="44.77245" lon="5.06792">
        <ele>549.05</ele>
        <time>2022-05-26T08:22:16Z</time>
      </trkpt>
      <trkpt lat="44.77252" lon="5.06777">
        <ele>550.01</ele>
        <time>2022-05-26T08:22:28Z</time>
      </trkpt>
      <trkpt lat="44.7726" lon="5.06756">
        <ele>550.49</ele>
        <time>2022-05-26T08:22:42Z</time>
      </trkpt>
      <trkpt lat="44.77263" lon="5.06738">
        <ele>552.9</ele>
        <time>2022-05-26T08:22:56Z</time>
      </trkpt>
      <trkpt lat="44.77264" lon="5.0672">
        <ele>555.78</ele>
        <time>2022-05-26T08:23:09Z</time>
      </trkpt>
      <trkpt lat="44.77268" lon="5.06712">
        <ele>556.26</ele>
        <time>2022-05-26T08:23:17Z</time>
      </trkpt>
      <trkpt lat="44.77276" lon="5.06696">
        <ele>558.18</ele>
        <time>2022-05-26T08:23:32Z</time>
      </trkpt>
      <trkpt lat="44.77279" lon="5.06673">
        <ele>561.07</ele>
        <time>2022-05-26T08:23:47Z</time>
      </trkpt>
      <trkpt lat="44.77278" lon="5.06668">
        <ele>559.62</ele>
        <time>2022-05-26T08:23:50Z</time>
      </trkpt>
      <trkpt lat="44.77283" lon="5.06644">
        <ele>563.47</ele>
        <time>2022-05-26T08:24:10Z</time>
      </trkpt>
      <trkpt lat="44.77293" lon="5.06635">
        <ele>565.87</ele>
        <time>2022-05-26T08:24:25Z</time>
      </trkpt>
      <trkpt lat="44.77302" lon="5.06628">
        <ele>568.76</ele>
        <time>2022-05-26T08:24:37Z</time>
      </trkpt>
      <trkpt lat="44.77311" lon="5.06609">
        <ele>570.2</ele>
        <time>2022-05-26T08:24:52Z</time>
      </trkpt>
      <trkpt lat="44.77314" lon="5.06603">
        <ele>570.2</ele>
        <time>2022-05-26T08:24:57Z</time>
      </trkpt>
      <trkpt lat="44.77327" lon="5.06594">
        <ele>572.6</ele>
        <time>2022-05-26T08:25:12Z</time>
      </trkpt>
      <trkpt lat="44.77333" lon="5.06586">
        <ele>573.56</ele>
        <time>2022-05-26T08:25:20Z</time>
      </trkpt>
      <trkpt lat="44.77348" lon="5.06575">
        <ele>575.49</ele>
        <time>2022-05-26T08:25:36Z</time>
      </trkpt>
      <trkpt lat="44.77364" lon="5.06562">
        <ele>577.41</ele>
        <time>2022-05-26T08:25:53Z</time>
      </trkpt>
      <trkpt lat="44.77378" lon="5.06548">
        <ele>578.85</ele>
        <time>2022-05-26T08:26:10Z</time>
      </trkpt>
      <trkpt lat="44.77385" lon="5.06543">
        <ele>579.33</ele>
        <time>2022-05-26T08:26:18Z</time>
      </trkpt>
      <trkpt lat="44.77392" lon="5.06535">
        <ele>580.29</ele>
        <time>2022-05-26T08:26:24Z</time>
      </trkpt>
      <trkpt lat="44.77404" lon="5.06522">
        <ele>581.73</ele>
        <time>2022-05-26T08:26:39Z</time>
      </trkpt>
      <trkpt lat="44.77416" lon="5.06505">
        <ele>583.66</ele>
        <time>2022-05-26T08:26:53Z</time>
      </trkpt>
      <trkpt lat="44.77416" lon="5.06503">
        <ele>584.14</ele>
        <time>2022-05-26T08:26:55Z</time>
      </trkpt>
      <trkpt lat="44.77425" lon="5.0649">
        <ele>584.62</ele>
        <time>2022-05-26T08:27:06Z</time>
      </trkpt>
      <trkpt lat="44.77432" lon="5.06477">
        <ele>587.02</ele>
        <time>2022-05-26T08:27:16Z</time>
      </trkpt>
      <trkpt lat="44.7744" lon="5.06468">
        <ele>587.98</ele>
        <time>2022-05-26T08:27:24Z</time>
      </trkpt>
      <trkpt lat="44.77441" lon="5.06465">
        <ele>587.98</ele>
        <time>2022-05-26T08:27:26Z</time>
      </trkpt>
      <trkpt lat="44.77452" lon="5.06443">
        <ele>590.39</ele>
        <time>2022-05-26T08:27:42Z</time>
      </trkpt>
      <trkpt lat="44.77456" lon="5.06437">
        <ele>591.35</ele>
        <time>2022-05-26T08:27:48Z</time>
      </trkpt>
      <trkpt lat="44.7746" lon="5.06428">
        <ele>593.75</ele>
        <time>2022-05-26T08:27:56Z</time>
      </trkpt>
      <trkpt lat="44.77468" lon="5.06415">
        <ele>594.23</ele>
        <time>2022-05-26T08:28:13Z</time>
      </trkpt>
      <trkpt lat="44.77467" lon="5.06415">
        <ele>594.71</ele>
        <time>2022-05-26T08:28:20Z</time>
      </trkpt>
      <trkpt lat="44.77474" lon="5.06406">
        <ele>596.64</ele>
        <time>2022-05-26T08:28:28Z</time>
      </trkpt>
      <trkpt lat="44.7748" lon="5.06402">
        <ele>598.56</ele>
        <time>2022-05-26T08:28:37Z</time>
      </trkpt>
      <trkpt lat="44.77496" lon="5.064">
        <ele>602.88</ele>
        <time>2022-05-26T08:28:53Z</time>
      </trkpt>
      <trkpt lat="44.775" lon="5.0639">
        <ele>603.85</ele>
        <time>2022-05-26T08:29:07Z</time>
      </trkpt>
      <trkpt lat="44.77501" lon="5.06385">
        <ele>603.85</ele>
        <time>2022-05-26T08:29:22Z</time>
      </trkpt>
      <trkpt lat="44.77499" lon="5.06384">
        <ele>603.36</ele>
        <time>2022-05-26T08:29:48Z</time>
      </trkpt>
      <trkpt lat="44.77494" lon="5.06377">
        <ele>604.33</ele>
        <time>2022-05-26T08:30:02Z</time>
      </trkpt>
      <trkpt lat="44.77494" lon="5.06378">
        <ele>604.33</ele>
        <time>2022-05-26T08:30:14Z</time>
      </trkpt>
      <trkpt lat="44.77503" lon="5.06391">
        <ele>604.33</ele>
        <time>2022-05-26T08:30:28Z</time>
      </trkpt>
      <trkpt lat="44.77518" lon="5.06396">
        <ele>603.36</ele>
        <time>2022-05-26T08:30:42Z</time>
      </trkpt>
      <trkpt lat="44.77534" lon="5.06398">
        <ele>600.48</ele>
        <time>2022-05-26T08:30:54Z</time>
      </trkpt>
      <trkpt lat="44.77535" lon="5.06399">
        <ele>604.33</ele>
        <time>2022-05-26T08:30:55Z</time>
      </trkpt>
      <trkpt lat="44.77536" lon="5.06399">
        <ele>600.96</ele>
        <time>2022-05-26T08:30:56Z</time>
      </trkpt>
      <trkpt lat="44.77544" lon="5.064">
        <ele>601.92</ele>
        <time>2022-05-26T08:31:03Z</time>
      </trkpt>
      <trkpt lat="44.77547" lon="5.064">
        <ele>601.44</ele>
        <time>2022-05-26T08:31:05Z</time>
      </trkpt>
      <trkpt lat="44.77567" lon="5.06405">
        <ele>600.96</ele>
        <time>2022-05-26T08:31:23Z</time>
      </trkpt>
      <trkpt lat="44.77582" lon="5.06408">
        <ele>600.96</ele>
        <time>2022-05-26T08:31:39Z</time>
      </trkpt>
      <trkpt lat="44.77615" lon="5.06409">
        <ele>601.92</ele>
        <time>2022-05-26T08:31:57Z</time>
      </trkpt>
      <trkpt lat="44.77628" lon="5.06411">
        <ele>603.36</ele>
        <time>2022-05-26T08:32:13Z</time>
      </trkpt>
      <trkpt lat="44.77635" lon="5.06411">
        <ele>606.73</ele>
        <time>2022-05-26T08:32:32Z</time>
      </trkpt>
      <trkpt lat="44.77635" lon="5.06411">
        <ele>602.88</ele>
        <time>2022-05-26T08:32:34Z</time>
      </trkpt>
      <trkpt lat="44.77635" lon="5.06411">
        <ele>606.73</ele>
        <time>2022-05-26T08:32:37Z</time>
      </trkpt>
      <trkpt lat="44.77635" lon="5.06411">
        <ele>597.6</ele>
        <time>2022-05-26T08:32:39Z</time>
      </trkpt>
      <trkpt lat="44.77635" lon="5.06411">
        <ele>605.29</ele>
        <time>2022-05-26T08:32:40Z</time>
      </trkpt>
      <trkpt lat="44.77637" lon="5.06411">
        <ele>603.36</ele>
        <time>2022-05-26T08:32:56Z</time>
      </trkpt>
      <trkpt lat="44.77645" lon="5.06414">
        <ele>603.36</ele>
        <time>2022-05-26T08:33:08Z</time>
      </trkpt>
      <trkpt lat="44.77669" lon="5.06412">
        <ele>603.85</ele>
        <time>2022-05-26T08:33:25Z</time>
      </trkpt>
      <trkpt lat="44.77685" lon="5.06413">
        <ele>604.81</ele>
        <time>2022-05-26T08:33:42Z</time>
      </trkpt>
      <trkpt lat="44.77704" lon="5.06422">
        <ele>604.81</ele>
        <time>2022-05-26T08:34:01Z</time>
      </trkpt>
      <trkpt lat="44.77712" lon="5.06426">
        <ele>606.25</ele>
        <time>2022-05-26T08:34:07Z</time>
      </trkpt>
      <trkpt lat="44.77735" lon="5.06437">
        <ele>605.29</ele>
        <time>2022-05-26T08:34:24Z</time>
      </trkpt>
      <trkpt lat="44.77746" lon="5.06438">
        <ele>605.29</ele>
        <time>2022-05-26T08:34:34Z</time>
      </trkpt>
      <trkpt lat="44.7775" lon="5.06439">
        <ele>605.29</ele>
        <time>2022-05-26T08:34:36Z</time>
      </trkpt>
      <trkpt lat="44.7778" lon="5.06435">
        <ele>606.73</ele>
        <time>2022-05-26T08:34:55Z</time>
      </trkpt>
      <trkpt lat="44.77787" lon="5.06436">
        <ele>609.13</ele>
        <time>2022-05-26T08:35:01Z</time>
      </trkpt>
      <trkpt lat="44.7779" lon="5.06437">
        <ele>608.65</ele>
        <time>2022-05-26T08:35:04Z</time>
      </trkpt>
      <trkpt lat="44.77813" lon="5.06455">
        <ele>608.17</ele>
        <time>2022-05-26T08:35:24Z</time>
      </trkpt>
      <trkpt lat="44.77837" lon="5.06469">
        <ele>610.57</ele>
        <time>2022-05-26T08:35:43Z</time>
      </trkpt>
      <trkpt lat="44.77853" lon="5.06483">
        <ele>612.98</ele>
        <time>2022-05-26T08:36:00Z</time>
      </trkpt>
      <trkpt lat="44.7787" lon="5.06491">
        <ele>614.42</ele>
        <time>2022-05-26T08:36:14Z</time>
      </trkpt>
      <trkpt lat="44.77898" lon="5.06488">
        <ele>615.38</ele>
        <time>2022-05-26T08:36:32Z</time>
      </trkpt>
      <trkpt lat="44.77903" lon="5.06487">
        <ele>616.34</ele>
        <time>2022-05-26T08:36:37Z</time>
      </trkpt>
      <trkpt lat="44.77923" lon="5.0648">
        <ele>617.78</ele>
        <time>2022-05-26T08:36:52Z</time>
      </trkpt>
      <trkpt lat="44.77925" lon="5.06479">
        <ele>617.78</ele>
        <time>2022-05-26T08:36:53Z</time>
      </trkpt>
      <trkpt lat="44.77939" lon="5.0649">
        <ele>613.46</ele>
        <time>2022-05-26T08:37:08Z</time>
      </trkpt>
      <trkpt lat="44.77941" lon="5.06493">
        <ele>612.98</ele>
        <time>2022-05-26T08:37:10Z</time>
      </trkpt>
      <trkpt lat="44.77943" lon="5.06496">
        <ele>612.5</ele>
        <time>2022-05-26T08:37:12Z</time>
      </trkpt>
      <trkpt lat="44.77947" lon="5.06497">
        <ele>609.61</ele>
        <time>2022-05-26T08:37:16Z</time>
      </trkpt>
      <trkpt lat="44.77948" lon="5.06498">
        <ele>612.02</ele>
        <time>2022-05-26T08:37:21Z</time>
      </trkpt>
      <trkpt lat="44.77957" lon="5.06506">
        <ele>610.57</ele>
        <time>2022-05-26T08:37:32Z</time>
      </trkpt>
      <trkpt lat="44.77969" lon="5.06519">
        <ele>608.17</ele>
        <time>2022-05-26T08:37:45Z</time>
      </trkpt>
      <trkpt lat="44.7799" lon="5.06538">
        <ele>606.25</ele>
        <time>2022-05-26T08:38:05Z</time>
      </trkpt>
      <trkpt lat="44.78009" lon="5.06554">
        <ele>603.85</ele>
        <time>2022-05-26T08:38:24Z</time>
      </trkpt>
      <trkpt lat="44.78033" lon="5.06576">
        <ele>605.77</ele>
        <time>2022-05-26T08:38:43Z</time>
      </trkpt>
      <trkpt lat="44.78048" lon="5.06593">
        <ele>606.25</ele>
        <time>2022-05-26T08:39:01Z</time>
      </trkpt>
      <trkpt lat="44.78053" lon="5.06597">
        <ele>605.29</ele>
        <time>2022-05-26T08:39:20Z</time>
      </trkpt>
      <trkpt lat="44.78053" lon="5.06597">
        <ele>605.29</ele>
        <time>2022-05-26T08:39:43Z</time>
      </trkpt>
      <trkpt lat="44.78054" lon="5.06598">
        <ele>605.77</ele>
        <time>2022-05-26T08:40:07Z</time>
      </trkpt>
      <trkpt lat="44.78059" lon="5.06601">
        <ele>604.33</ele>
        <time>2022-05-26T08:40:27Z</time>
      </trkpt>
      <trkpt lat="44.78061" lon="5.06599">
        <ele>603.85</ele>
        <time>2022-05-26T08:40:49Z</time>
      </trkpt>
      <trkpt lat="44.78085" lon="5.06597">
        <ele>605.77</ele>
        <time>2022-05-26T08:41:02Z</time>
      </trkpt>
      <trkpt lat="44.78132" lon="5.06604">
        <ele>607.21</ele>
        <time>2022-05-26T08:41:16Z</time>
      </trkpt>
      <trkpt lat="44.78143" lon="5.06609">
        <ele>607.69</ele>
        <time>2022-05-26T08:41:23Z</time>
      </trkpt>
      <trkpt lat="44.78161" lon="5.06626">
        <ele>608.65</ele>
        <time>2022-05-26T08:41:41Z</time>
      </trkpt>
      <trkpt lat="44.78175" lon="5.06637">
        <ele>607.69</ele>
        <time>2022-05-26T08:41:56Z</time>
      </trkpt>
      <trkpt lat="44.78181" lon="5.0664">
        <ele>607.69</ele>
        <time>2022-05-26T08:42:11Z</time>
      </trkpt>
      <trkpt lat="44.78192" lon="5.06644">
        <ele>606.73</ele>
        <time>2022-05-26T08:42:28Z</time>
      </trkpt>
      <trkpt lat="44.78224" lon="5.06649">
        <ele>606.25</ele>
        <time>2022-05-26T08:42:44Z</time>
      </trkpt>
      <trkpt lat="44.78244" lon="5.06648">
        <ele>606.25</ele>
        <time>2022-05-26T08:43:04Z</time>
      </trkpt>
      <trkpt lat="44.78277" lon="5.06648">
        <ele>607.21</ele>
        <time>2022-05-26T08:43:18Z</time>
      </trkpt>
      <trkpt lat="44.78322" lon="5.06657">
        <ele>606.73</ele>
        <time>2022-05-26T08:43:37Z</time>
      </trkpt>
      <trkpt lat="44.78343" lon="5.06669">
        <ele>607.69</ele>
        <time>2022-05-26T08:43:53Z</time>
      </trkpt>
      <trkpt lat="44.78371" lon="5.06677">
        <ele>609.61</ele>
        <time>2022-05-26T08:44:13Z</time>
      </trkpt>
      <trkpt lat="44.7838" lon="5.06683">
        <ele>609.13</ele>
        <time>2022-05-26T08:44:29Z</time>
      </trkpt>
      <trkpt lat="44.78408" lon="5.06692">
        <ele>610.09</ele>
        <time>2022-05-26T08:44:47Z</time>
      </trkpt>
      <trkpt lat="44.7843" lon="5.06696">
        <ele>612.02</ele>
        <time>2022-05-26T08:45:04Z</time>
      </trkpt>
      <trkpt lat="44.78452" lon="5.06701">
        <ele>609.13</ele>
        <time>2022-05-26T08:45:18Z</time>
      </trkpt>
      <trkpt lat="44.78466" lon="5.06698">
        <ele>609.61</ele>
        <time>2022-05-26T08:45:34Z</time>
      </trkpt>
      <trkpt lat="44.78479" lon="5.06678">
        <ele>610.57</ele>
        <time>2022-05-26T08:45:49Z</time>
      </trkpt>
      <trkpt lat="44.78493" lon="5.06664">
        <ele>610.09</ele>
        <time>2022-05-26T08:46:02Z</time>
      </trkpt>
      <trkpt lat="44.7851" lon="5.06644">
        <ele>612.02</ele>
        <time>2022-05-26T08:46:19Z</time>
      </trkpt>
      <trkpt lat="44.78519" lon="5.06625">
        <ele>612.98</ele>
        <time>2022-05-26T08:46:33Z</time>
      </trkpt>
      <trkpt lat="44.78532" lon="5.06614">
        <ele>614.9</ele>
        <time>2022-05-26T08:46:43Z</time>
      </trkpt>
      <trkpt lat="44.78545" lon="5.06622">
        <ele>616.34</ele>
        <time>2022-05-26T08:46:59Z</time>
      </trkpt>
      <trkpt lat="44.78557" lon="5.06637">
        <ele>617.3</ele>
        <time>2022-05-26T08:47:16Z</time>
      </trkpt>
      <trkpt lat="44.78572" lon="5.06643">
        <ele>616.34</ele>
        <time>2022-05-26T08:47:33Z</time>
      </trkpt>
      <trkpt lat="44.78573" lon="5.06644">
        <ele>616.82</ele>
        <time>2022-05-26T08:47:52Z</time>
      </trkpt>
      <trkpt lat="44.78601" lon="5.06655">
        <ele>616.34</ele>
        <time>2022-05-26T08:48:07Z</time>
      </trkpt>
      <trkpt lat="44.78627" lon="5.06656">
        <ele>617.3</ele>
        <time>2022-05-26T08:48:20Z</time>
      </trkpt>
      <trkpt lat="44.78647" lon="5.06651">
        <ele>616.34</ele>
        <time>2022-05-26T08:48:36Z</time>
      </trkpt>
      <trkpt lat="44.78662" lon="5.06652">
        <ele>615.38</ele>
        <time>2022-05-26T08:48:51Z</time>
      </trkpt>
      <trkpt lat="44.78675" lon="5.06653">
        <ele>615.86</ele>
        <time>2022-05-26T08:49:08Z</time>
      </trkpt>
      <trkpt lat="44.78681" lon="5.06654">
        <ele>617.3</ele>
        <time>2022-05-26T08:49:12Z</time>
      </trkpt>
      <trkpt lat="44.78709" lon="5.06658">
        <ele>616.34</ele>
        <time>2022-05-26T08:49:29Z</time>
      </trkpt>
      <trkpt lat="44.78734" lon="5.06665">
        <ele>617.3</ele>
        <time>2022-05-26T08:49:48Z</time>
      </trkpt>
      <trkpt lat="44.78748" lon="5.06662">
        <ele>618.75</ele>
        <time>2022-05-26T08:49:58Z</time>
      </trkpt>
      <trkpt lat="44.78758" lon="5.06654">
        <ele>618.26</ele>
        <time>2022-05-26T08:50:11Z</time>
      </trkpt>
      <trkpt lat="44.78762" lon="5.06652">
        <ele>618.26</ele>
        <time>2022-05-26T08:50:14Z</time>
      </trkpt>
      <trkpt lat="44.7877" lon="5.0665">
        <ele>618.75</ele>
        <time>2022-05-26T08:50:20Z</time>
      </trkpt>
      <trkpt lat="44.78791" lon="5.06645">
        <ele>619.23</ele>
        <time>2022-05-26T08:50:37Z</time>
      </trkpt>
      <trkpt lat="44.78805" lon="5.06652">
        <ele>620.67</ele>
        <time>2022-05-26T08:50:50Z</time>
      </trkpt>
      <trkpt lat="44.78812" lon="5.06654">
        <ele>622.11</ele>
        <time>2022-05-26T08:50:55Z</time>
      </trkpt>
      <trkpt lat="44.78815" lon="5.06656">
        <ele>622.11</ele>
        <time>2022-05-26T08:50:57Z</time>
      </trkpt>
      <trkpt lat="44.78823" lon="5.0666">
        <ele>622.59</ele>
        <time>2022-05-26T08:51:02Z</time>
      </trkpt>
      <trkpt lat="44.78843" lon="5.06673">
        <ele>623.07</ele>
        <time>2022-05-26T08:51:18Z</time>
      </trkpt>
      <trkpt lat="44.78862" lon="5.06689">
        <ele>623.55</ele>
        <time>2022-05-26T08:51:37Z</time>
      </trkpt>
      <trkpt lat="44.78875" lon="5.06681">
        <ele>623.55</ele>
        <time>2022-05-26T08:51:52Z</time>
      </trkpt>
      <trkpt lat="44.7889" lon="5.06668">
        <ele>622.59</ele>
        <time>2022-05-26T08:52:06Z</time>
      </trkpt>
      <trkpt lat="44.78901" lon="5.06648">
        <ele>622.11</ele>
        <time>2022-05-26T08:52:20Z</time>
      </trkpt>
      <trkpt lat="44.78911" lon="5.06637">
        <ele>621.15</ele>
        <time>2022-05-26T08:52:33Z</time>
      </trkpt>
      <trkpt lat="44.78927" lon="5.06614">
        <ele>619.71</ele>
        <time>2022-05-26T08:52:49Z</time>
      </trkpt>
      <trkpt lat="44.78932" lon="5.06605">
        <ele>619.23</ele>
        <time>2022-05-26T08:52:55Z</time>
      </trkpt>
      <trkpt lat="44.78944" lon="5.06584">
        <ele>619.23</ele>
        <time>2022-05-26T08:53:11Z</time>
      </trkpt>
      <trkpt lat="44.78956" lon="5.06578">
        <ele>618.26</ele>
        <time>2022-05-26T08:53:24Z</time>
      </trkpt>
      <trkpt lat="44.78972" lon="5.06583">
        <ele>614.9</ele>
        <time>2022-05-26T08:53:41Z</time>
      </trkpt>
      <trkpt lat="44.78992" lon="5.06588">
        <ele>612.02</ele>
        <time>2022-05-26T08:53:57Z</time>
      </trkpt>
      <trkpt lat="44.79006" lon="5.06585">
        <ele>610.09</ele>
        <time>2022-05-26T08:54:14Z</time>
      </trkpt>
      <trkpt lat="44.79015" lon="5.06586">
        <ele>610.09</ele>
        <time>2022-05-26T08:54:17Z</time>
      </trkpt>
      <trkpt lat="44.79055" lon="5.06592">
        <ele>609.13</ele>
        <time>2022-05-26T08:54:38Z</time>
      </trkpt>
      <trkpt lat="44.79077" lon="5.06588">
        <ele>608.65</ele>
        <time>2022-05-26T08:54:55Z</time>
      </trkpt>
      <trkpt lat="44.79078" lon="5.06588">
        <ele>608.65</ele>
        <time>2022-05-26T08:54:56Z</time>
      </trkpt>
      <trkpt lat="44.79092" lon="5.06575">
        <ele>609.13</ele>
        <time>2022-05-26T08:55:12Z</time>
      </trkpt>
      <trkpt lat="44.7911" lon="5.06559">
        <ele>608.65</ele>
        <time>2022-05-26T08:55:29Z</time>
      </trkpt>
      <trkpt lat="44.79125" lon="5.06542">
        <ele>608.17</ele>
        <time>2022-05-26T08:55:46Z</time>
      </trkpt>
      <trkpt lat="44.79134" lon="5.06536">
        <ele>608.65</ele>
        <time>2022-05-26T08:55:53Z</time>
      </trkpt>
      <trkpt lat="44.79144" lon="5.06538">
        <ele>608.17</ele>
        <time>2022-05-26T08:56:01Z</time>
      </trkpt>
      <trkpt lat="44.79149" lon="5.0654">
        <ele>607.21</ele>
        <time>2022-05-26T08:56:05Z</time>
      </trkpt>
      <trkpt lat="44.79169" lon="5.06558">
        <ele>605.77</ele>
        <time>2022-05-26T08:56:25Z</time>
      </trkpt>
      <trkpt lat="44.79195" lon="5.06566">
        <ele>604.81</ele>
        <time>2022-05-26T08:56:43Z</time>
      </trkpt>
      <trkpt lat="44.79218" lon="5.06562">
        <ele>601.92</ele>
        <time>2022-05-26T08:57:00Z</time>
      </trkpt>
      <trkpt lat="44.7924" lon="5.06555">
        <ele>601.44</ele>
        <time>2022-05-26T08:57:17Z</time>
      </trkpt>
      <trkpt lat="44.79253" lon="5.06546">
        <ele>600.48</ele>
        <time>2022-05-26T08:57:34Z</time>
      </trkpt>
      <trkpt lat="44.79257" lon="5.06526">
        <ele>600.96</ele>
        <time>2022-05-26T08:57:51Z</time>
      </trkpt>
      <trkpt lat="44.79281" lon="5.06499">
        <ele>600.96</ele>
        <time>2022-05-26T08:58:11Z</time>
      </trkpt>
      <trkpt lat="44.79289" lon="5.06487">
        <ele>601.44</ele>
        <time>2022-05-26T08:58:23Z</time>
      </trkpt>
      <trkpt lat="44.79313" lon="5.06448">
        <ele>600</ele>
        <time>2022-05-26T08:58:46Z</time>
      </trkpt>
      <trkpt lat="44.79316" lon="5.06433">
        <ele>599.52</ele>
        <time>2022-05-26T08:59:05Z</time>
      </trkpt>
      <trkpt lat="44.79318" lon="5.06425">
        <ele>599.52</ele>
        <time>2022-05-26T08:59:10Z</time>
      </trkpt>
      <trkpt lat="44.79323" lon="5.06396">
        <ele>599.04</ele>
        <time>2022-05-26T08:59:25Z</time>
      </trkpt>
      <trkpt lat="44.79326" lon="5.06386">
        <ele>599.04</ele>
        <time>2022-05-26T08:59:29Z</time>
      </trkpt>
      <trkpt lat="44.79345" lon="5.06367">
        <ele>595.19</ele>
        <time>2022-05-26T08:59:42Z</time>
      </trkpt>
      <trkpt lat="44.79357" lon="5.06353">
        <ele>591.83</ele>
        <time>2022-05-26T08:59:55Z</time>
      </trkpt>
      <trkpt lat="44.79363" lon="5.06346">
        <ele>588.46</ele>
        <time>2022-05-26T09:00:10Z</time>
      </trkpt>
      <trkpt lat="44.79363" lon="5.06345">
        <ele>586.06</ele>
        <time>2022-05-26T09:00:15Z</time>
      </trkpt>
      <trkpt lat="44.79367" lon="5.06344">
        <ele>586.06</ele>
        <time>2022-05-26T09:00:17Z</time>
      </trkpt>
      <trkpt lat="44.79385" lon="5.06338">
        <ele>582.7</ele>
        <time>2022-05-26T09:00:34Z</time>
      </trkpt>
      <trkpt lat="44.7939" lon="5.06341">
        <ele>579.81</ele>
        <time>2022-05-26T09:00:41Z</time>
      </trkpt>
      <trkpt lat="44.79392" lon="5.06342">
        <ele>578.37</ele>
        <time>2022-05-26T09:00:45Z</time>
      </trkpt>
      <trkpt lat="44.79395" lon="5.06352">
        <ele>575.01</ele>
        <time>2022-05-26T09:00:55Z</time>
      </trkpt>
      <trkpt lat="44.79398" lon="5.06363">
        <ele>571.64</ele>
        <time>2022-05-26T09:01:06Z</time>
      </trkpt>
      <trkpt lat="44.7941" lon="5.06377">
        <ele>568.76</ele>
        <time>2022-05-26T09:01:23Z</time>
      </trkpt>
      <trkpt lat="44.79414" lon="5.06384">
        <ele>568.28</ele>
        <time>2022-05-26T09:01:36Z</time>
      </trkpt>
      <trkpt lat="44.79434" lon="5.06398">
        <ele>565.87</ele>
        <time>2022-05-26T09:01:54Z</time>
      </trkpt>
      <trkpt lat="44.7944" lon="5.06404">
        <ele>562.51</ele>
        <time>2022-05-26T09:02:09Z</time>
      </trkpt>
      <trkpt lat="44.79442" lon="5.06412">
        <ele>561.55</ele>
        <time>2022-05-26T09:02:12Z</time>
      </trkpt>
      <trkpt lat="44.79446" lon="5.06428">
        <ele>561.07</ele>
        <time>2022-05-26T09:02:20Z</time>
      </trkpt>
      <trkpt lat="44.79454" lon="5.06444">
        <ele>559.14</ele>
        <time>2022-05-26T09:02:35Z</time>
      </trkpt>
      <trkpt lat="44.79474" lon="5.06446">
        <ele>558.18</ele>
        <time>2022-05-26T09:02:50Z</time>
      </trkpt>
      <trkpt lat="44.795" lon="5.06443">
        <ele>555.3</ele>
        <time>2022-05-26T09:03:08Z</time>
      </trkpt>
      <trkpt lat="44.7951" lon="5.06438">
        <ele>551.93</ele>
        <time>2022-05-26T09:03:20Z</time>
      </trkpt>
      <trkpt lat="44.7952" lon="5.0644">
        <ele>549.05</ele>
        <time>2022-05-26T09:03:35Z</time>
      </trkpt>
      <trkpt lat="44.79534" lon="5.06432">
        <ele>545.69</ele>
        <time>2022-05-26T09:03:52Z</time>
      </trkpt>
      <trkpt lat="44.79537" lon="5.06428">
        <ele>545.69</ele>
        <time>2022-05-26T09:03:55Z</time>
      </trkpt>
      <trkpt lat="44.79545" lon="5.06404">
        <ele>543.76</ele>
        <time>2022-05-26T09:04:11Z</time>
      </trkpt>
      <trkpt lat="44.79553" lon="5.06383">
        <ele>542.32</ele>
        <time>2022-05-26T09:04:25Z</time>
      </trkpt>
      <trkpt lat="44.79557" lon="5.0638">
        <ele>541.84</ele>
        <time>2022-05-26T09:04:28Z</time>
      </trkpt>
      <trkpt lat="44.79571" lon="5.06356">
        <ele>539.44</ele>
        <time>2022-05-26T09:04:44Z</time>
      </trkpt>
      <trkpt lat="44.79571" lon="5.06355">
        <ele>539.44</ele>
        <time>2022-05-26T09:04:45Z</time>
      </trkpt>
      <trkpt lat="44.79577" lon="5.06344">
        <ele>537.99</ele>
        <time>2022-05-26T09:04:54Z</time>
      </trkpt>
      <trkpt lat="44.79582" lon="5.06329">
        <ele>535.59</ele>
        <time>2022-05-26T09:05:08Z</time>
      </trkpt>
      <trkpt lat="44.79594" lon="5.06317">
        <ele>532.23</ele>
        <time>2022-05-26T09:05:24Z</time>
      </trkpt>
      <trkpt lat="44.79605" lon="5.06306">
        <ele>529.34</ele>
        <time>2022-05-26T09:05:36Z</time>
      </trkpt>
      <trkpt lat="44.79609" lon="5.06291">
        <ele>526.46</ele>
        <time>2022-05-26T09:05:51Z</time>
      </trkpt>
      <trkpt lat="44.79616" lon="5.06272">
        <ele>523.58</ele>
        <time>2022-05-26T09:06:11Z</time>
      </trkpt>
      <trkpt lat="44.79618" lon="5.06261">
        <ele>522.13</ele>
        <time>2022-05-26T09:06:25Z</time>
      </trkpt>
      <trkpt lat="44.79628" lon="5.06244">
        <ele>519.73</ele>
        <time>2022-05-26T09:06:43Z</time>
      </trkpt>
      <trkpt lat="44.79644" lon="5.06228">
        <ele>517.81</ele>
        <time>2022-05-26T09:06:58Z</time>
      </trkpt>
      <trkpt lat="44.79658" lon="5.06208">
        <ele>515.88</ele>
        <time>2022-05-26T09:07:15Z</time>
      </trkpt>
      <trkpt lat="44.79679" lon="5.06181">
        <ele>513.48</ele>
        <time>2022-05-26T09:07:33Z</time>
      </trkpt>
      <trkpt lat="44.79693" lon="5.06177">
        <ele>510.6</ele>
        <time>2022-05-26T09:07:45Z</time>
      </trkpt>
      <trkpt lat="44.79705" lon="5.0617">
        <ele>508.19</ele>
        <time>2022-05-26T09:08:00Z</time>
      </trkpt>
      <trkpt lat="44.7971" lon="5.06165">
        <ele>504.83</ele>
        <time>2022-05-26T09:08:12Z</time>
      </trkpt>
      <trkpt lat="44.79725" lon="5.06151">
        <ele>501.95</ele>
        <time>2022-05-26T09:08:30Z</time>
      </trkpt>
      <trkpt lat="44.79737" lon="5.06139">
        <ele>498.58</ele>
        <time>2022-05-26T09:08:46Z</time>
      </trkpt>
      <trkpt lat="44.79757" lon="5.0612">
        <ele>495.7</ele>
        <time>2022-05-26T09:09:02Z</time>
      </trkpt>
      <trkpt lat="44.79771" lon="5.0611">
        <ele>494.74</ele>
        <time>2022-05-26T09:09:14Z</time>
      </trkpt>
      <trkpt lat="44.79777" lon="5.06106">
        <ele>492.81</ele>
        <time>2022-05-26T09:09:25Z</time>
      </trkpt>
      <trkpt lat="44.79779" lon="5.06098">
        <ele>491.85</ele>
        <time>2022-05-26T09:09:37Z</time>
      </trkpt>
      <trkpt lat="44.79802" lon="5.06067">
        <ele>489.45</ele>
        <time>2022-05-26T09:09:50Z</time>
      </trkpt>
      <trkpt lat="44.7981" lon="5.06064">
        <ele>488.97</ele>
        <time>2022-05-26T09:10:02Z</time>
      </trkpt>
      <trkpt lat="44.79813" lon="5.06062">
        <ele>488.97</ele>
        <time>2022-05-26T09:10:04Z</time>
      </trkpt>
      <trkpt lat="44.79822" lon="5.06045">
        <ele>486.56</ele>
        <time>2022-05-26T09:10:17Z</time>
      </trkpt>
      <trkpt lat="44.79829" lon="5.06033">
        <ele>486.08</ele>
        <time>2022-05-26T09:10:26Z</time>
      </trkpt>
      <trkpt lat="44.79831" lon="5.0603">
        <ele>486.56</ele>
        <time>2022-05-26T09:10:28Z</time>
      </trkpt>
      <trkpt lat="44.79835" lon="5.06025">
        <ele>485.6</ele>
        <time>2022-05-26T09:10:32Z</time>
      </trkpt>
      <trkpt lat="44.79846" lon="5.06007">
        <ele>482.24</ele>
        <time>2022-05-26T09:10:48Z</time>
      </trkpt>
      <trkpt lat="44.79851" lon="5.06">
        <ele>480.32</ele>
        <time>2022-05-26T09:10:55Z</time>
      </trkpt>
      <trkpt lat="44.79854" lon="5.05995">
        <ele>479.35</ele>
        <time>2022-05-26T09:10:59Z</time>
      </trkpt>
      <trkpt lat="44.7986" lon="5.05985">
        <ele>477.91</ele>
        <time>2022-05-26T09:11:14Z</time>
      </trkpt>
      <trkpt lat="44.79865" lon="5.0597">
        <ele>474.07</ele>
        <time>2022-05-26T09:11:25Z</time>
      </trkpt>
      <trkpt lat="44.79865" lon="5.05969">
        <ele>477.43</ele>
        <time>2022-05-26T09:11:26Z</time>
      </trkpt>
      <trkpt lat="44.79866" lon="5.05966">
        <ele>475.51</ele>
        <time>2022-05-26T09:11:28Z</time>
      </trkpt>
      <trkpt lat="44.79867" lon="5.05949">
        <ele>474.55</ele>
        <time>2022-05-26T09:11:40Z</time>
      </trkpt>
      <trkpt lat="44.79866" lon="5.05943">
        <ele>473.11</ele>
        <time>2022-05-26T09:11:44Z</time>
      </trkpt>
      <trkpt lat="44.79861" lon="5.05931">
        <ele>471.66</ele>
        <time>2022-05-26T09:11:56Z</time>
      </trkpt>
      <trkpt lat="44.79859" lon="5.0592">
        <ele>470.22</ele>
        <time>2022-05-26T09:12:03Z</time>
      </trkpt>
      <trkpt lat="44.79854" lon="5.05901">
        <ele>468.78</ele>
        <time>2022-05-26T09:12:14Z</time>
      </trkpt>
      <trkpt lat="44.79858" lon="5.0589">
        <ele>467.82</ele>
        <time>2022-05-26T09:12:22Z</time>
      </trkpt>
      <trkpt lat="44.79863" lon="5.05884">
        <ele>466.86</ele>
        <time>2022-05-26T09:12:27Z</time>
      </trkpt>
      <trkpt lat="44.79871" lon="5.05881">
        <ele>466.38</ele>
        <time>2022-05-26T09:12:34Z</time>
      </trkpt>
      <trkpt lat="44.79892" lon="5.05874">
        <ele>464.93</ele>
        <time>2022-05-26T09:12:51Z</time>
      </trkpt>
      <trkpt lat="44.79908" lon="5.05871">
        <ele>463.49</ele>
        <time>2022-05-26T09:13:04Z</time>
      </trkpt>
      <trkpt lat="44.79924" lon="5.05865">
        <ele>462.53</ele>
        <time>2022-05-26T09:13:17Z</time>
      </trkpt>
      <trkpt lat="44.7993" lon="5.05862">
        <ele>462.53</ele>
        <time>2022-05-26T09:13:21Z</time>
      </trkpt>
      <trkpt lat="44.79942" lon="5.05848">
        <ele>461.09</ele>
        <time>2022-05-26T09:13:33Z</time>
      </trkpt>
      <trkpt lat="44.79947" lon="5.05843">
        <ele>460.13</ele>
        <time>2022-05-26T09:13:38Z</time>
      </trkpt>
      <trkpt lat="44.79966" lon="5.05826">
        <ele>458.69</ele>
        <time>2022-05-26T09:13:54Z</time>
      </trkpt>
      <trkpt lat="44.7998" lon="5.05815">
        <ele>456.28</ele>
        <time>2022-05-26T09:14:07Z</time>
      </trkpt>
      <trkpt lat="44.79998" lon="5.05805">
        <ele>454.36</ele>
        <time>2022-05-26T09:14:23Z</time>
      </trkpt>
      <trkpt lat="44.8001" lon="5.05791">
        <ele>451</ele>
        <time>2022-05-26T09:14:37Z</time>
      </trkpt>
      <trkpt lat="44.80014" lon="5.05788">
        <ele>449.07</ele>
        <time>2022-05-26T09:14:42Z</time>
      </trkpt>
      <trkpt lat="44.80021" lon="5.05778">
        <ele>446.19</ele>
        <time>2022-05-26T09:14:52Z</time>
      </trkpt>
      <trkpt lat="44.80031" lon="5.05768">
        <ele>443.79</ele>
        <time>2022-05-26T09:15:02Z</time>
      </trkpt>
      <trkpt lat="44.80046" lon="5.05751">
        <ele>440.9</ele>
        <time>2022-05-26T09:15:16Z</time>
      </trkpt>
      <trkpt lat="44.80048" lon="5.05748">
        <ele>439.46</ele>
        <time>2022-05-26T09:15:19Z</time>
      </trkpt>
      <trkpt lat="44.80055" lon="5.05741">
        <ele>437.06</ele>
        <time>2022-05-26T09:15:27Z</time>
      </trkpt>
      <trkpt lat="44.80057" lon="5.0574">
        <ele>436.58</ele>
        <time>2022-05-26T09:15:29Z</time>
      </trkpt>
      <trkpt lat="44.80069" lon="5.0573">
        <ele>432.73</ele>
        <time>2022-05-26T09:15:41Z</time>
      </trkpt>
      <trkpt lat="44.80074" lon="5.05726">
        <ele>432.73</ele>
        <time>2022-05-26T09:15:58Z</time>
      </trkpt>
      <trkpt lat="44.80079" lon="5.05728">
        <ele>431.29</ele>
        <time>2022-05-26T09:16:13Z</time>
      </trkpt>
      <trkpt lat="44.80079" lon="5.05729">
        <ele>432.73</ele>
        <time>2022-05-26T09:16:33Z</time>
      </trkpt>
      <trkpt lat="44.80079" lon="5.05727">
        <ele>431.29</ele>
        <time>2022-05-26T09:16:36Z</time>
      </trkpt>
      <trkpt lat="44.80085" lon="5.05717">
        <ele>427.92</ele>
        <time>2022-05-26T09:16:50Z</time>
      </trkpt>
      <trkpt lat="44.80094" lon="5.05707">
        <ele>425.52</ele>
        <time>2022-05-26T09:17:04Z</time>
      </trkpt>
      <trkpt lat="44.80105" lon="5.05699">
        <ele>422.64</ele>
        <time>2022-05-26T09:17:18Z</time>
      </trkpt>
      <trkpt lat="44.80113" lon="5.05688">
        <ele>419.75</ele>
        <time>2022-05-26T09:17:29Z</time>
      </trkpt>
      <trkpt lat="44.80114" lon="5.05687">
        <ele>419.27</ele>
        <time>2022-05-26T09:17:30Z</time>
      </trkpt>
      <trkpt lat="44.80117" lon="5.05683">
        <ele>418.31</ele>
        <time>2022-05-26T09:17:35Z</time>
      </trkpt>
      <trkpt lat="44.8013" lon="5.05672">
        <ele>414.95</ele>
        <time>2022-05-26T09:17:46Z</time>
      </trkpt>
      <trkpt lat="44.8014" lon="5.05654">
        <ele>412.06</ele>
        <time>2022-05-26T09:17:59Z</time>
      </trkpt>
      <trkpt lat="44.8014" lon="5.05654">
        <ele>412.06</ele>
        <time>2022-05-26T09:18:06Z</time>
      </trkpt>
      <trkpt lat="44.80142" lon="5.05646">
        <ele>410.62</ele>
        <time>2022-05-26T09:18:10Z</time>
      </trkpt>
      <trkpt lat="44.80154" lon="5.0563">
        <ele>409.66</ele>
        <time>2022-05-26T09:18:22Z</time>
      </trkpt>
      <trkpt lat="44.80155" lon="5.05615">
        <ele>408.7</ele>
        <time>2022-05-26T09:18:32Z</time>
      </trkpt>
      <trkpt lat="44.80155" lon="5.05614">
        <ele>408.22</ele>
        <time>2022-05-26T09:18:34Z</time>
      </trkpt>
      <trkpt lat="44.80159" lon="5.05605">
        <ele>407.26</ele>
        <time>2022-05-26T09:18:40Z</time>
      </trkpt>
      <trkpt lat="44.80161" lon="5.05602">
        <ele>406.77</ele>
        <time>2022-05-26T09:18:43Z</time>
      </trkpt>
      <trkpt lat="44.80167" lon="5.05581">
        <ele>403.89</ele>
        <time>2022-05-26T09:18:59Z</time>
      </trkpt>
      <trkpt lat="44.8017" lon="5.05578">
        <ele>402.93</ele>
        <time>2022-05-26T09:19:02Z</time>
      </trkpt>
      <trkpt lat="44.80176" lon="5.05569">
        <ele>402.45</ele>
        <time>2022-05-26T09:19:15Z</time>
      </trkpt>
      <trkpt lat="44.80177" lon="5.0557">
        <ele>402.93</ele>
        <time>2022-05-26T09:19:16Z</time>
      </trkpt>
      <trkpt lat="44.80183" lon="5.05573">
        <ele>401.97</ele>
        <time>2022-05-26T09:19:20Z</time>
      </trkpt>
      <trkpt lat="44.80193" lon="5.05575">
        <ele>402.93</ele>
        <time>2022-05-26T09:19:28Z</time>
      </trkpt>
      <trkpt lat="44.80197" lon="5.05578">
        <ele>403.41</ele>
        <time>2022-05-26T09:19:31Z</time>
      </trkpt>
      <trkpt lat="44.80214" lon="5.05585">
        <ele>403.89</ele>
        <time>2022-05-26T09:19:45Z</time>
      </trkpt>
      <trkpt lat="44.80232" lon="5.05584">
        <ele>403.41</ele>
        <time>2022-05-26T09:19:57Z</time>
      </trkpt>
      <trkpt lat="44.80246" lon="5.05583">
        <ele>404.85</ele>
        <time>2022-05-26T09:20:08Z</time>
      </trkpt>
      <trkpt lat="44.80262" lon="5.05579">
        <ele>402.45</ele>
        <time>2022-05-26T09:20:21Z</time>
      </trkpt>
      <trkpt lat="44.80266" lon="5.05579">
        <ele>401.97</ele>
        <time>2022-05-26T09:20:24Z</time>
      </trkpt>
      <trkpt lat="44.80281" lon="5.05577">
        <ele>399.08</ele>
        <time>2022-05-26T09:20:37Z</time>
      </trkpt>
      <trkpt lat="44.80286" lon="5.05581">
        <ele>399.08</ele>
        <time>2022-05-26T09:20:42Z</time>
      </trkpt>
      <trkpt lat="44.8029" lon="5.05586">
        <ele>399.08</ele>
        <time>2022-05-26T09:20:46Z</time>
      </trkpt>
      <trkpt lat="44.80291" lon="5.05591">
        <ele>397.64</ele>
        <time>2022-05-26T09:20:56Z</time>
      </trkpt>
      <trkpt lat="44.80306" lon="5.05601">
        <ele>397.16</ele>
        <time>2022-05-26T09:21:06Z</time>
      </trkpt>
      <trkpt lat="44.80322" lon="5.05609">
        <ele>398.12</ele>
        <time>2022-05-26T09:21:20Z</time>
      </trkpt>
      <trkpt lat="44.80342" lon="5.05621">
        <ele>398.6</ele>
        <time>2022-05-26T09:21:36Z</time>
      </trkpt>
      <trkpt lat="44.80359" lon="5.05629">
        <ele>401.49</ele>
        <time>2022-05-26T09:21:52Z</time>
      </trkpt>
      <trkpt lat="44.8036" lon="5.0563">
        <ele>401.49</ele>
        <time>2022-05-26T09:21:53Z</time>
      </trkpt>
      <trkpt lat="44.8036" lon="5.0563">
        <ele>401.49</ele>
        <time>2022-05-26T09:21:55Z</time>
      </trkpt>
      <trkpt lat="44.80374" lon="5.05651">
        <ele>402.93</ele>
        <time>2022-05-26T09:22:10Z</time>
      </trkpt>
      <trkpt lat="44.80379" lon="5.0566">
        <ele>403.41</ele>
        <time>2022-05-26T09:22:19Z</time>
      </trkpt>
      <trkpt lat="44.80386" lon="5.05674">
        <ele>405.81</ele>
        <time>2022-05-26T09:22:26Z</time>
      </trkpt>
      <trkpt lat="44.8039" lon="5.05679">
        <ele>403.89</ele>
        <time>2022-05-26T09:22:33Z</time>
      </trkpt>
      <trkpt lat="44.80394" lon="5.05678">
        <ele>403.41</ele>
        <time>2022-05-26T09:22:35Z</time>
      </trkpt>
      <trkpt lat="44.804" lon="5.05676">
        <ele>403.89</ele>
        <time>2022-05-26T09:22:38Z</time>
      </trkpt>
      <trkpt lat="44.80419" lon="5.05653">
        <ele>405.81</ele>
        <time>2022-05-26T09:22:51Z</time>
      </trkpt>
      <trkpt lat="44.80425" lon="5.05644">
        <ele>407.26</ele>
        <time>2022-05-26T09:23:00Z</time>
      </trkpt>
      <trkpt lat="44.80429" lon="5.05638">
        <ele>407.26</ele>
        <time>2022-05-26T09:23:04Z</time>
      </trkpt>
      <trkpt lat="44.80435" lon="5.05629">
        <ele>405.81</ele>
        <time>2022-05-26T09:23:14Z</time>
      </trkpt>
      <trkpt lat="44.80435" lon="5.05629">
        <ele>406.77</ele>
        <time>2022-05-26T09:23:15Z</time>
      </trkpt>
      <trkpt lat="44.80448" lon="5.05613">
        <ele>408.22</ele>
        <time>2022-05-26T09:23:28Z</time>
      </trkpt>
      <trkpt lat="44.80455" lon="5.05599">
        <ele>407.26</ele>
        <time>2022-05-26T09:23:37Z</time>
      </trkpt>
      <trkpt lat="44.80457" lon="5.05596">
        <ele>409.18</ele>
        <time>2022-05-26T09:23:39Z</time>
      </trkpt>
      <trkpt lat="44.80463" lon="5.0559">
        <ele>410.14</ele>
        <time>2022-05-26T09:23:45Z</time>
      </trkpt>
      <trkpt lat="44.8047" lon="5.05578">
        <ele>411.1</ele>
        <time>2022-05-26T09:23:53Z</time>
      </trkpt>
      <trkpt lat="44.80478" lon="5.05556">
        <ele>413.5</ele>
        <time>2022-05-26T09:24:06Z</time>
      </trkpt>
      <trkpt lat="44.80478" lon="5.05555">
        <ele>413.5</ele>
        <time>2022-05-26T09:24:07Z</time>
      </trkpt>
      <trkpt lat="44.80487" lon="5.05539">
        <ele>413.02</ele>
        <time>2022-05-26T09:24:19Z</time>
      </trkpt>
      <trkpt lat="44.80495" lon="5.0553">
        <ele>413.02</ele>
        <time>2022-05-26T09:24:27Z</time>
      </trkpt>
      <trkpt lat="44.80498" lon="5.05526">
        <ele>413.5</ele>
        <time>2022-05-26T09:24:30Z</time>
      </trkpt>
      <trkpt lat="44.8051" lon="5.05511">
        <ele>413.98</ele>
        <time>2022-05-26T09:24:42Z</time>
      </trkpt>
      <trkpt lat="44.8052" lon="5.05492">
        <ele>415.91</ele>
        <time>2022-05-26T09:24:53Z</time>
      </trkpt>
      <trkpt lat="44.80523" lon="5.05484">
        <ele>416.87</ele>
        <time>2022-05-26T09:24:59Z</time>
      </trkpt>
      <trkpt lat="44.80527" lon="5.05474">
        <ele>417.83</ele>
        <time>2022-05-26T09:25:06Z</time>
      </trkpt>
      <trkpt lat="44.80529" lon="5.05472">
        <ele>418.31</ele>
        <time>2022-05-26T09:25:08Z</time>
      </trkpt>
      <trkpt lat="44.80535" lon="5.05465">
        <ele>418.79</ele>
        <time>2022-05-26T09:25:14Z</time>
      </trkpt>
      <trkpt lat="44.80542" lon="5.05461">
        <ele>418.79</ele>
        <time>2022-05-26T09:25:19Z</time>
      </trkpt>
      <trkpt lat="44.80548" lon="5.05459">
        <ele>418.31</ele>
        <time>2022-05-26T09:25:24Z</time>
      </trkpt>
      <trkpt lat="44.80553" lon="5.05457">
        <ele>418.31</ele>
        <time>2022-05-26T09:25:34Z</time>
      </trkpt>
      <trkpt lat="44.80559" lon="5.05449">
        <ele>415.91</ele>
        <time>2022-05-26T09:25:42Z</time>
      </trkpt>
      <trkpt lat="44.80565" lon="5.05441">
        <ele>413.5</ele>
        <time>2022-05-26T09:25:49Z</time>
      </trkpt>
      <trkpt lat="44.80563" lon="5.05431">
        <ele>413.5</ele>
        <time>2022-05-26T09:25:55Z</time>
      </trkpt>
      <trkpt lat="44.80561" lon="5.05421">
        <ele>412.06</ele>
        <time>2022-05-26T09:26:00Z</time>
      </trkpt>
      <trkpt lat="44.80557" lon="5.05392">
        <ele>409.66</ele>
        <time>2022-05-26T09:26:15Z</time>
      </trkpt>
      <trkpt lat="44.80557" lon="5.05388">
        <ele>408.7</ele>
        <time>2022-05-26T09:26:18Z</time>
      </trkpt>
      <trkpt lat="44.80557" lon="5.05372">
        <ele>406.77</ele>
        <time>2022-05-26T09:26:34Z</time>
      </trkpt>
      <trkpt lat="44.80557" lon="5.05366">
        <ele>406.29</ele>
        <time>2022-05-26T09:26:46Z</time>
      </trkpt>
      <trkpt lat="44.80558" lon="5.05367">
        <ele>406.29</ele>
        <time>2022-05-26T09:27:03Z</time>
      </trkpt>
      <trkpt lat="44.80557" lon="5.05367">
        <ele>405.81</ele>
        <time>2022-05-26T09:27:14Z</time>
      </trkpt>
      <trkpt lat="44.80558" lon="5.0537">
        <ele>403.89</ele>
        <time>2022-05-26T09:41:57Z</time>
      </trkpt>
      <trkpt lat="44.8056" lon="5.05369">
        <ele>403.89</ele>
        <time>2022-05-26T09:41:58Z</time>
      </trkpt>
      <trkpt lat="44.80561" lon="5.05363">
        <ele>405.33</ele>
        <time>2022-05-26T09:42:08Z</time>
      </trkpt>
      <trkpt lat="44.8056" lon="5.05365">
        <ele>407.26</ele>
        <time>2022-05-26T09:42:12Z</time>
      </trkpt>
      <trkpt lat="44.80559" lon="5.05366">
        <ele>410.14</ele>
        <time>2022-05-26T09:42:16Z</time>
      </trkpt>
      <trkpt lat="44.80558" lon="5.05365">
        <ele>409.18</ele>
        <time>2022-05-26T09:42:17Z</time>
      </trkpt>
      <trkpt lat="44.80556" lon="5.05365">
        <ele>408.22</ele>
        <time>2022-05-26T09:42:27Z</time>
      </trkpt>
      <trkpt lat="44.80557" lon="5.05368">
        <ele>407.74</ele>
        <time>2022-05-26T09:42:44Z</time>
      </trkpt>
      <trkpt lat="44.80558" lon="5.05369">
        <ele>408.22</ele>
        <time>2022-05-26T09:42:47Z</time>
      </trkpt>
      <trkpt lat="44.8056" lon="5.05368">
        <ele>408.22</ele>
        <time>2022-05-26T09:42:49Z</time>
      </trkpt>
      <trkpt lat="44.80567" lon="5.05367">
        <ele>408.22</ele>
        <time>2022-05-26T09:42:58Z</time>
      </trkpt>
      <trkpt lat="44.80577" lon="5.05367">
        <ele>408.7</ele>
        <time>2022-05-26T09:43:11Z</time>
      </trkpt>
      <trkpt lat="44.80579" lon="5.05365">
        <ele>407.74</ele>
        <time>2022-05-26T09:43:14Z</time>
      </trkpt>
      <trkpt lat="44.8058" lon="5.05357">
        <ele>406.77</ele>
        <time>2022-05-26T09:43:21Z</time>
      </trkpt>
      <trkpt lat="44.80583" lon="5.0534">
        <ele>404.85</ele>
        <time>2022-05-26T09:43:33Z</time>
      </trkpt>
      <trkpt lat="44.80585" lon="5.05321">
        <ele>402.93</ele>
        <time>2022-05-26T09:43:44Z</time>
      </trkpt>
      <trkpt lat="44.80586" lon="5.05317">
        <ele>401.97</ele>
        <time>2022-05-26T09:43:49Z</time>
      </trkpt>
      <trkpt lat="44.80587" lon="5.05298">
        <ele>400.05</ele>
        <time>2022-05-26T09:43:57Z</time>
      </trkpt>
      <trkpt lat="44.80587" lon="5.0529">
        <ele>398.6</ele>
        <time>2022-05-26T09:44:04Z</time>
      </trkpt>
      <trkpt lat="44.80591" lon="5.0527">
        <ele>397.16</ele>
        <time>2022-05-26T09:44:15Z</time>
      </trkpt>
      <trkpt lat="44.80591" lon="5.0527">
        <ele>396.68</ele>
        <time>2022-05-26T09:44:16Z</time>
      </trkpt>
      <trkpt lat="44.80592" lon="5.05267">
        <ele>396.2</ele>
        <time>2022-05-26T09:44:19Z</time>
      </trkpt>
      <trkpt lat="44.80593" lon="5.05241">
        <ele>394.28</ele>
        <time>2022-05-26T09:44:32Z</time>
      </trkpt>
      <trkpt lat="44.80593" lon="5.05238">
        <ele>393.8</ele>
        <time>2022-05-26T09:44:34Z</time>
      </trkpt>
      <trkpt lat="44.80592" lon="5.05213">
        <ele>391.87</ele>
        <time>2022-05-26T09:44:46Z</time>
      </trkpt>
      <trkpt lat="44.80592" lon="5.05211">
        <ele>391.39</ele>
        <time>2022-05-26T09:44:50Z</time>
      </trkpt>
      <trkpt lat="44.80591" lon="5.05188">
        <ele>389.47</ele>
        <time>2022-05-26T09:45:00Z</time>
      </trkpt>
      <trkpt lat="44.8059" lon="5.05184">
        <ele>388.99</ele>
        <time>2022-05-26T09:45:04Z</time>
      </trkpt>
      <trkpt lat="44.8059" lon="5.05177">
        <ele>388.03</ele>
        <time>2022-05-26T09:45:07Z</time>
      </trkpt>
      <trkpt lat="44.80588" lon="5.05167">
        <ele>387.07</ele>
        <time>2022-05-26T09:45:14Z</time>
      </trkpt>
      <trkpt lat="44.80583" lon="5.05145">
        <ele>385.15</ele>
        <time>2022-05-26T09:45:27Z</time>
      </trkpt>
      <trkpt lat="44.80583" lon="5.05143">
        <ele>385.15</ele>
        <time>2022-05-26T09:45:29Z</time>
      </trkpt>
      <trkpt lat="44.80582" lon="5.05139">
        <ele>385.15</ele>
        <time>2022-05-26T09:45:31Z</time>
      </trkpt>
      <trkpt lat="44.80578" lon="5.05122">
        <ele>383.7</ele>
        <time>2022-05-26T09:45:38Z</time>
      </trkpt>
      <trkpt lat="44.80576" lon="5.05113">
        <ele>382.74</ele>
        <time>2022-05-26T09:45:45Z</time>
      </trkpt>
      <trkpt lat="44.8057" lon="5.05097">
        <ele>380.34</ele>
        <time>2022-05-26T09:45:53Z</time>
      </trkpt>
      <trkpt lat="44.80565" lon="5.05079">
        <ele>378.9</ele>
        <time>2022-05-26T09:46:05Z</time>
      </trkpt>
      <trkpt lat="44.80559" lon="5.05063">
        <ele>375.53</ele>
        <time>2022-05-26T09:46:13Z</time>
      </trkpt>
      <trkpt lat="44.80557" lon="5.05053">
        <ele>376.01</ele>
        <time>2022-05-26T09:46:21Z</time>
      </trkpt>
      <trkpt lat="44.80558" lon="5.05041">
        <ele>374.09</ele>
        <time>2022-05-26T09:46:27Z</time>
      </trkpt>
      <trkpt lat="44.80553" lon="5.0502">
        <ele>370.73</ele>
        <time>2022-05-26T09:46:39Z</time>
      </trkpt>
      <trkpt lat="44.80553" lon="5.0502">
        <ele>370.24</ele>
        <time>2022-05-26T09:46:44Z</time>
      </trkpt>
      <trkpt lat="44.80543" lon="5.04995">
        <ele>369.28</ele>
        <time>2022-05-26T09:46:54Z</time>
      </trkpt>
      <trkpt lat="44.80543" lon="5.04994">
        <ele>368.8</ele>
        <time>2022-05-26T09:46:55Z</time>
      </trkpt>
      <trkpt lat="44.80541" lon="5.04987">
        <ele>366.88</ele>
        <time>2022-05-26T09:47:05Z</time>
      </trkpt>
      <trkpt lat="44.80538" lon="5.04976">
        <ele>365.92</ele>
        <time>2022-05-26T09:47:09Z</time>
      </trkpt>
      <trkpt lat="44.8053" lon="5.04948">
        <ele>364.96</ele>
        <time>2022-05-26T09:47:20Z</time>
      </trkpt>
      <trkpt lat="44.80524" lon="5.04929">
        <ele>362.07</ele>
        <time>2022-05-26T09:47:33Z</time>
      </trkpt>
      <trkpt lat="44.80517" lon="5.04902">
        <ele>361.11</ele>
        <time>2022-05-26T09:47:45Z</time>
      </trkpt>
      <trkpt lat="44.80517" lon="5.04894">
        <ele>359.19</ele>
        <time>2022-05-26T09:47:53Z</time>
      </trkpt>
      <trkpt lat="44.80515" lon="5.04883">
        <ele>358.71</ele>
        <time>2022-05-26T09:47:58Z</time>
      </trkpt>
      <trkpt lat="44.80508" lon="5.04858">
        <ele>357.27</ele>
        <time>2022-05-26T09:48:13Z</time>
      </trkpt>
      <trkpt lat="44.80499" lon="5.04835">
        <ele>355.83</ele>
        <time>2022-05-26T09:48:23Z</time>
      </trkpt>
      <trkpt lat="44.80494" lon="5.04826">
        <ele>354.38</ele>
        <time>2022-05-26T09:48:33Z</time>
      </trkpt>
      <trkpt lat="44.80487" lon="5.04814">
        <ele>354.86</ele>
        <time>2022-05-26T09:48:38Z</time>
      </trkpt>
      <trkpt lat="44.80481" lon="5.04807">
        <ele>354.38</ele>
        <time>2022-05-26T09:48:47Z</time>
      </trkpt>
      <trkpt lat="44.80478" lon="5.04803">
        <ele>354.38</ele>
        <time>2022-05-26T09:48:53Z</time>
      </trkpt>
      <trkpt lat="44.80475" lon="5.04794">
        <ele>352.46</ele>
        <time>2022-05-26T09:49:02Z</time>
      </trkpt>
      <trkpt lat="44.80469" lon="5.04783">
        <ele>352.46</ele>
        <time>2022-05-26T09:49:06Z</time>
      </trkpt>
      <trkpt lat="44.80466" lon="5.04776">
        <ele>351.98</ele>
        <time>2022-05-26T09:49:15Z</time>
      </trkpt>
      <trkpt lat="44.80461" lon="5.04758">
        <ele>351.02</ele>
        <time>2022-05-26T09:49:22Z</time>
      </trkpt>
      <trkpt lat="44.80462" lon="5.04752">
        <ele>350.54</ele>
        <time>2022-05-26T09:49:28Z</time>
      </trkpt>
      <trkpt lat="44.80458" lon="5.04736">
        <ele>349.58</ele>
        <time>2022-05-26T09:49:33Z</time>
      </trkpt>
      <trkpt lat="44.80458" lon="5.04721">
        <ele>347.65</ele>
        <time>2022-05-26T09:49:45Z</time>
      </trkpt>
      <trkpt lat="44.80458" lon="5.04715">
        <ele>346.69</ele>
        <time>2022-05-26T09:49:48Z</time>
      </trkpt>
      <trkpt lat="44.80457" lon="5.04702">
        <ele>346.69</ele>
        <time>2022-05-26T09:49:52Z</time>
      </trkpt>
      <trkpt lat="44.80452" lon="5.04685">
        <ele>345.73</ele>
        <time>2022-05-26T09:50:04Z</time>
      </trkpt>
      <trkpt lat="44.80449" lon="5.04674">
        <ele>344.29</ele>
        <time>2022-05-26T09:50:14Z</time>
      </trkpt>
      <trkpt lat="44.80449" lon="5.04674">
        <ele>344.77</ele>
        <time>2022-05-26T09:50:15Z</time>
      </trkpt>
      <trkpt lat="44.80448" lon="5.04671">
        <ele>344.29</ele>
        <time>2022-05-26T09:50:18Z</time>
      </trkpt>
      <trkpt lat="44.8044" lon="5.04641">
        <ele>343.33</ele>
        <time>2022-05-26T09:50:32Z</time>
      </trkpt>
      <trkpt lat="44.80439" lon="5.04634">
        <ele>342.85</ele>
        <time>2022-05-26T09:50:40Z</time>
      </trkpt>
      <trkpt lat="44.80435" lon="5.04609">
        <ele>341.89</ele>
        <time>2022-05-26T09:50:50Z</time>
      </trkpt>
      <trkpt lat="44.80435" lon="5.04605">
        <ele>341.89</ele>
        <time>2022-05-26T09:50:57Z</time>
      </trkpt>
      <trkpt lat="44.80436" lon="5.04589">
        <ele>341.41</ele>
        <time>2022-05-26T09:51:04Z</time>
      </trkpt>
      <trkpt lat="44.80437" lon="5.04583">
        <ele>343.81</ele>
        <time>2022-05-26T09:51:08Z</time>
      </trkpt>
    </trkseg>
  </trk>
</gpx>